Time,TemperatureF,DewpointF,PressureIn,WindDirection,WindDirectionDegrees,WindSpeedMPH,WindSpeedGustMPH,Humidity,HourlyPrecipIn,Conditions,Clouds,dailyrainin,SoftwareType,DateUTC
2013-04-17 00:03:00,70.6,70.6,30.12,South,169,4.3,20.7,100,0.01,,SKC,0.01,VWS V14.01,2013-04-17 04:03:00,
2013-04-17 00:04:00,70.6,70.6,30.12,South,173,4.9,20.7,100,0.01,,SKC,0.01,VWS V14.01,2013-04-17 04:04:00,
2013-04-17 00:08:00,70.5,70.5,30.12,SSE,155,0.5,20.7,100,0.01,,SKC,0.01,VWS V14.01,2013-04-17 04:08:00,
2013-04-17 00:09:00,70.5,70.6,30.12,SSE,155,0.0,20.7,100,0.01,,SKC,0.01,VWS V14.01,2013-04-17 04:09:00,
2013-04-17 00:14:00,70.6,70.6,30.13,SSE,166,1.3,20.7,100,0.01,,SKC,0.01,VWS V14.01,2013-04-17 04:14:00,
2013-04-17 00:19:00,70.6,70.6,30.13,SSE,155,1.1,20.7,100,0.01,,SKC,0.01,VWS V14.01,2013-04-17 04:19:00,
2013-04-17 00:24:00,70.5,70.5,30.12,SE,142,1.0,20.7,100,0.01,,SKC,0.01,VWS V14.01,2013-04-17 04:24:00,
2013-04-17 00:29:00,70.5,70.5,30.12,SE,146,0.0,20.7,100,0.01,,SKC,0.01,VWS V14.01,2013-04-17 04:29:00,
2013-04-17 00:34:00,70.5,70.5,30.13,SSE,165,3.2,20.7,100,0.01,,SKC,0.01,VWS V14.01,2013-04-17 04:34:00,
2013-04-17 00:35:00,70.5,70.5,30.13,SSE,166,6.0,20.7,100,0.01,,SKC,0.01,VWS V14.01,2013-04-17 04:35:00,
2013-04-17 00:39:00,70.5,70.5,30.13,South,170,2.5,20.7,100,0.01,,SKC,0.01,VWS V14.01,2013-04-17 04:39:00,
2013-04-17 00:40:00,70.5,70.5,30.13,South,170,3.0,20.7,100,0.01,,SKC,0.01,VWS V14.01,2013-04-17 04:40:00,
2013-04-17 00:44:00,70.5,70.5,30.13,South,173,1.6,20.7,100,0.01,,SKC,0.01,VWS V14.01,2013-04-17 04:44:00,
2013-04-17 00:45:00,70.6,70.6,30.13,South,183,2.7,20.7,100,0.01,,SKC,0.01,VWS V14.01,2013-04-17 04:45:00,
2013-04-17 00:50:00,70.5,70.5,30.13,SSW,198,4.7,20.7,100,0.01,,SKC,0.01,VWS V14.01,2013-04-17 04:50:00,
2013-04-17 00:55:00,70.5,70.5,30.12,South,183,0.0,20.7,100,0.01,,SKC,0.01,VWS V14.01,2013-04-17 04:55:00,
2013-04-17 01:00:00,70.5,70.5,30.12,South,177,1.2,20.7,100,0.01,,SKC,0.01,VWS V14.01,2013-04-17 05:00:00,
2013-04-17 01:01:00,70.4,70.4,30.10,SSE,160,4.0,8.8,100,0.00,,SKC,0.00,VWS V14.01,2013-04-17 05:01:00,
2013-04-17 01:02:00,70.4,70.4,30.10,South,170,4.3,11.2,100,0.00,,SKC,0.00,VWS V14.01,2013-04-17 05:02:00,
2013-04-17 01:03:00,70.4,70.4,30.10,South,177,8.0,11.2,100,0.00,,SKC,0.00,VWS V14.01,2013-04-17 05:03:00,
2013-04-17 01:04:00,70.4,70.4,30.10,SSW,194,4.4,11.2,100,0.00,,SKC,0.00,VWS V14.01,2013-04-17 05:04:00,
2013-04-17 01:05:00,70.6,70.6,30.12,South,177,4.2,4.6,100,0.00,,SKC,0.01,VWS V14.01,2013-04-17 05:05:00,
2013-04-17 01:10:00,70.6,70.6,30.12,SW,217,8.1,8.6,100,0.00,,SKC,0.01,VWS V14.01,2013-04-17 05:10:00,
2013-04-17 01:15:00,70.6,70.6,30.11,South,181,4.7,4.7,100,0.00,,SKC,0.01,VWS V14.01,2013-04-17 05:15:00,
2013-04-17 01:20:00,70.6,70.6,30.11,South,188,1.0,3.7,100,0.00,,SKC,0.01,VWS V14.01,2013-04-17 05:20:00,
2013-04-17 01:21:00,70.5,70.5,30.11,SSW,205,4.6,7.6,100,0.00,,SKC,0.01,VWS V14.01,2013-04-17 05:21:00,
2013-04-17 01:25:00,70.5,70.5,30.11,South,170,9.1,9.1,100,0.00,,SKC,0.01,VWS V14.01,2013-04-17 05:25:00,
2013-04-17 01:26:00,70.6,70.6,30.11,SSE,167,6.6,7.1,100,0.00,,SKC,0.01,VWS V14.01,2013-04-17 05:26:00,
2013-04-17 01:30:00,70.5,70.5,30.10,SSW,212,4.5,11.4,100,0.00,,SKC,0.01,VWS V14.01,2013-04-17 05:30:00,
2013-04-17 01:31:00,70.5,70.5,30.10,South,173,10.4,13.2,100,0.00,,SKC,0.01,VWS V14.01,2013-04-17 05:31:00,
2013-04-17 01:32:00,70.5,70.5,30.10,South,183,5.0,13.2,100,0.00,,SKC,0.01,VWS V14.01,2013-04-17 05:32:00,
2013-04-17 01:35:00,70.5,70.5,30.10,South,173,3.1,8.5,100,0.00,,SKC,0.01,VWS V14.01,2013-04-17 05:35:00,
2013-04-17 01:36:00,70.5,70.5,30.11,SSE,162,0.7,3.5,100,0.00,,SKC,0.01,VWS V14.01,2013-04-17 05:36:00,
2013-04-17 01:37:00,70.5,70.5,30.11,SSE,162,0.0,3.5,100,0.00,,SKC,0.01,VWS V14.01,2013-04-17 05:37:00,
2013-04-17 01:40:00,70.5,70.5,30.10,South,169,3.9,6.6,100,0.00,,SKC,0.01,VWS V14.01,2013-04-17 05:40:00,
2013-04-17 01:42:00,70.5,70.5,30.10,SSW,208,5.0,8.0,100,0.00,,SKC,0.01,VWS V14.01,2013-04-17 05:42:00,
2013-04-17 01:45:00,70.5,70.5,30.10,SSW,208,7.1,7.5,100,0.00,,SKC,0.01,VWS V14.01,2013-04-17 05:45:00,
2013-04-17 01:47:00,70.5,70.5,30.10,SSE,156,7.1,7.1,100,0.00,,SKC,0.01,VWS V14.01,2013-04-17 05:47:00,
2013-04-17 01:50:00,70.5,70.5,30.10,SSE,162,5.8,7.6,100,0.00,,SKC,0.01,VWS V14.01,2013-04-17 05:50:00,
2013-04-17 01:52:00,70.5,70.5,30.10,SSE,155,1.9,5.0,100,0.00,,SKC,0.01,VWS V14.01,2013-04-17 05:52:00,
2013-04-17 01:56:00,70.5,70.5,30.10,South,180,5.0,6.9,100,0.00,,SKC,0.01,VWS V14.01,2013-04-17 05:56:00,
2013-04-17 01:57:00,70.4,70.4,30.10,SSE,160,4.8,8.8,100,0.00,,SKC,0.01,VWS V14.01,2013-04-17 05:57:00,
2013-04-17 01:58:00,70.4,70.4,30.10,SSE,160,6.2,8.8,100,0.00,,SKC,0.01,VWS V14.01,2013-04-17 05:58:00,
2013-04-17 02:02:00,70.4,70.4,30.10,South,173,5.9,11.2,100,0.00,,SKC,0.00,VWS V14.01,2013-04-17 06:02:00,
2013-04-17 02:03:00,70.3,70.3,30.10,South,181,5.9,11.2,100,0.00,,SKC,0.00,VWS V14.01,2013-04-17 06:03:00,
2013-04-17 02:08:00,70.4,70.4,30.10,SSE,156,2.2,11.2,100,0.00,,SKC,0.00,VWS V14.01,2013-04-17 06:08:00,
2013-04-17 02:09:00,70.4,70.4,30.10,SSE,163,7.3,11.2,100,0.00,,SKC,0.00,VWS V14.01,2013-04-17 06:09:00,
2013-04-17 02:13:00,70.4,70.4,30.10,South,169,5.8,11.2,100,0.00,,SKC,0.00,VWS V14.01,2013-04-17 06:13:00,
2013-04-17 02:14:00,70.4,70.4,30.10,SSE,160,10.4,11.2,100,0.00,,SKC,0.00,VWS V14.01,2013-04-17 06:14:00,
2013-04-17 02:18:00,70.3,70.3,30.10,South,172,5.0,11.2,100,0.00,,SKC,0.00,VWS V14.01,2013-04-17 06:18:00,
2013-04-17 02:19:00,70.4,70.4,30.10,South,173,4.8,11.2,100,0.00,,SKC,0.00,VWS V14.01,2013-04-17 06:19:00,
2013-04-17 02:23:00,70.3,70.3,30.10,South,188,2.9,11.2,100,0.00,,SKC,0.00,VWS V14.01,2013-04-17 06:23:00,
2013-04-17 02:24:00,70.4,70.4,30.10,SSE,158,6.8,11.2,100,0.00,,SKC,0.00,VWS V14.01,2013-04-17 06:24:00,
2013-04-17 02:28:00,70.3,70.3,30.09,SSW,195,1.8,11.2,100,0.00,,SKC,0.00,VWS V14.01,2013-04-17 06:28:00,
2013-04-17 02:29:00,70.3,70.3,30.09,South,190,3.7,11.2,100,0.00,,SKC,0.00,VWS V14.01,2013-04-17 06:29:00,
2013-04-17 02:33:00,70.4,70.4,30.09,SSW,202,4.0,11.2,100,0.00,,SKC,0.00,VWS V14.01,2013-04-17 06:33:00,
2013-04-17 02:34:00,70.4,70.4,30.09,South,169,6.2,11.2,100,0.00,,SKC,0.00,VWS V14.01,2013-04-17 06:34:00,
2013-04-17 02:38:00,70.3,70.3,30.08,SSE,158,3.9,11.2,100,0.00,,SKC,0.00,VWS V14.01,2013-04-17 06:38:00,
2013-04-17 02:39:00,70.3,70.3,30.08,SSE,158,2.6,11.2,100,0.00,,SKC,0.00,VWS V14.01,2013-04-17 06:39:00,
2013-04-17 02:43:00,70.3,70.3,30.08,SSE,158,4.9,11.2,100,0.00,,SKC,0.00,VWS V14.01,2013-04-17 06:43:00,
2013-04-17 02:44:00,70.3,70.3,30.09,SSE,166,1.4,11.2,100,0.00,,SKC,0.00,VWS V14.01,2013-04-17 06:44:00,
2013-04-17 02:48:00,70.3,70.3,30.08,SSE,155,4.4,11.2,100,0.00,,SKC,0.00,VWS V14.01,2013-04-17 06:48:00,
2013-04-17 02:49:00,70.3,70.3,30.08,SSE,149,1.0,11.2,100,0.00,,SKC,0.00,VWS V14.01,2013-04-17 06:49:00,
2013-04-17 02:53:00,70.3,70.2,30.08,SSE,160,3.7,11.2,100,0.00,,SKC,0.00,VWS V14.01,2013-04-17 06:53:00,
2013-04-17 02:54:00,70.2,70.2,30.08,SSE,156,5.6,11.2,100,0.00,,SKC,0.00,VWS V14.01,2013-04-17 06:54:00,
2013-04-17 02:58:00,70.2,70.2,30.08,SSE,158,5.4,11.2,100,0.00,,SKC,0.00,VWS V14.01,2013-04-17 06:58:00,
2013-04-17 02:59:00,70.3,70.3,30.08,SE,136,0.0,11.2,100,0.00,,SKC,0.00,VWS V14.01,2013-04-17 06:59:00,
2013-04-17 03:00:00,70.3,70.3,30.08,SSE,159,1.1,11.2,100,0.00,,SKC,0.00,VWS V14.01,2013-04-17 07:00:00,
2013-04-17 03:04:00,70.2,70.2,30.08,South,174,5.2,11.2,100,0.00,,SKC,0.00,VWS V14.01,2013-04-17 07:04:00,
2013-04-17 03:05:00,70.3,70.3,30.08,South,179,3.6,11.2,100,0.00,,SKC,0.00,VWS V14.01,2013-04-17 07:05:00,
2013-04-17 03:09:00,70.3,70.3,30.08,SSE,159,0.7,11.2,100,0.00,,SKC,0.00,VWS V14.01,2013-04-17 07:09:00,
2013-04-17 03:10:00,70.3,70.3,30.08,South,181,2.7,11.2,100,0.00,,SKC,0.00,VWS V14.01,2013-04-17 07:10:00,
2013-04-17 03:14:00,70.3,70.3,30.08,SSE,155,0.0,11.2,100,0.00,,SKC,0.00,VWS V14.01,2013-04-17 07:14:00,
2013-04-17 03:15:00,70.3,70.3,30.08,SSW,201,1.6,11.2,100,0.00,,SKC,0.00,VWS V14.01,2013-04-17 07:15:00,
2013-04-17 03:19:00,70.3,70.3,30.08,South,169,1.3,11.2,100,0.00,,SKC,0.00,VWS V14.01,2013-04-17 07:19:00,
2013-04-17 03:20:00,70.3,70.3,30.08,South,172,1.1,11.2,100,0.00,,SKC,0.00,VWS V14.01,2013-04-17 07:20:00,
2013-04-17 03:24:00,70.2,70.2,30.08,SSE,163,5.1,11.2,100,0.00,,SKC,0.00,VWS V14.01,2013-04-17 07:24:00,
2013-04-17 03:25:00,70.3,70.3,30.08,SSE,159,1.9,11.2,100,0.00,,SKC,0.00,VWS V14.01,2013-04-17 07:25:00,
2013-04-17 03:29:00,70.3,70.3,30.07,SSE,152,5.6,11.2,100,0.00,,SKC,0.00,VWS V14.01,2013-04-17 07:29:00,
2013-04-17 03:30:00,70.3,70.3,30.07,SSE,149,3.3,11.2,100,0.00,,SKC,0.00,VWS V14.01,2013-04-17 07:30:00,
2013-04-17 03:34:00,70.3,70.3,30.07,SSE,160,5.9,11.2,100,0.01,,SKC,0.01,VWS V14.01,2013-04-17 07:34:00,
2013-04-17 03:35:00,70.2,70.2,30.07,SSE,158,5.0,11.2,100,0.01,,SKC,0.01,VWS V14.01,2013-04-17 07:35:00,
2013-04-17 03:36:00,70.3,70.3,30.08,SE,141,0.0,11.2,100,0.01,,SKC,0.01,VWS V14.01,2013-04-17 07:36:00,
2013-04-17 03:39:00,70.3,70.2,30.07,SSE,152,0.0,11.2,100,0.01,,SKC,0.01,VWS V14.01,2013-04-17 07:39:00,
2013-04-17 03:40:00,70.2,70.2,30.07,SSE,152,0.0,11.2,100,0.01,,SKC,0.01,VWS V14.01,2013-04-17 07:40:00,
2013-04-17 03:41:00,70.3,70.3,30.07,SSE,160,5.0,11.2,100,0.01,,SKC,0.01,VWS V14.01,2013-04-17 07:41:00,
2013-04-17 03:45:00,70.3,70.3,30.07,South,186,5.9,11.2,100,0.01,,SKC,0.01,VWS V14.01,2013-04-17 07:45:00,
2013-04-17 03:46:00,70.3,70.3,30.07,SE,134,1.0,11.2,100,0.01,,SKC,0.01,VWS V14.01,2013-04-17 07:46:00,
2013-04-17 03:50:00,70.2,70.2,30.08,SSE,158,4.3,11.2,100,0.01,,SKC,0.01,VWS V14.01,2013-04-17 07:50:00,
2013-04-17 03:51:00,70.3,70.3,30.08,SSW,202,1.8,11.2,100,0.01,,SKC,0.01,VWS V14.01,2013-04-17 07:51:00,
2013-04-17 03:55:00,70.3,70.3,30.07,SSE,153,0.7,11.2,100,0.01,,SKC,0.01,VWS V14.01,2013-04-17 07:55:00,
2013-04-17 03:56:00,70.3,70.3,30.07,South,176,5.4,11.2,100,0.01,,SKC,0.01,VWS V14.01,2013-04-17 07:56:00,
2013-04-17 03:57:00,70.3,70.3,30.07,South,176,4.9,11.2,100,0.01,,SKC,0.01,VWS V14.01,2013-04-17 07:57:00,
2013-04-17 04:00:00,70.2,70.2,30.07,South,186,4.8,11.2,100,0.01,,SKC,0.01,VWS V14.01,2013-04-17 08:00:00,
2013-04-17 04:01:00,70.2,70.2,30.07,South,176,3.2,11.2,100,0.01,,SKC,0.01,VWS V14.01,2013-04-17 08:01:00,
2013-04-17 04:02:00,70.3,70.3,30.07,SSE,162,6.5,11.2,100,0.01,,SKC,0.01,VWS V14.01,2013-04-17 08:02:00,
2013-04-17 04:05:00,70.3,70.3,30.07,SW,215,4.8,11.2,100,0.01,,SKC,0.01,VWS V14.01,2013-04-17 08:05:00,
2013-04-17 04:06:00,70.3,70.3,30.06,SSW,195,3.8,11.2,100,0.01,,SKC,0.01,VWS V14.01,2013-04-17 08:06:00,
2013-04-17 04:07:00,70.4,70.4,30.06,South,177,3.1,11.2,100,0.01,,SKC,0.01,VWS V14.01,2013-04-17 08:07:00,
2013-04-17 04:10:00,70.3,70.3,30.06,South,187,3.5,11.2,100,0.01,,SKC,0.01,VWS V14.01,2013-04-17 08:10:00,
2013-04-17 04:11:00,70.3,70.3,30.06,SSW,194,5.2,11.2,100,0.01,,SKC,0.01,VWS V14.01,2013-04-17 08:11:00,
2013-04-17 04:12:00,70.4,70.4,30.06,NNW,340,8.9,11.2,100,0.01,,SKC,0.01,VWS V14.01,2013-04-17 08:12:00,
2013-04-17 04:13:00,70.3,70.3,30.06,SSE,165,1.5,11.2,100,0.01,,SKC,0.01,VWS V14.01,2013-04-17 08:13:00,
2013-04-17 04:15:00,70.3,70.3,30.06,South,191,2.4,11.2,100,0.01,,SKC,0.01,VWS V14.01,2013-04-17 08:15:00,
2013-04-17 04:16:00,70.3,70.3,30.06,South,186,3.1,11.2,100,0.01,,SKC,0.01,VWS V14.01,2013-04-17 08:16:00,
2013-04-17 04:17:00,70.3,70.3,30.06,South,184,3.3,11.2,100,0.01,,SKC,0.01,VWS V14.01,2013-04-17 08:17:00,
2013-04-17 04:18:00,70.3,70.3,30.06,SSW,207,5.8,11.2,100,0.01,,SKC,0.01,VWS V14.01,2013-04-17 08:18:00,
2013-04-17 04:20:00,70.3,70.3,30.06,SSE,167,6.3,11.2,100,0.01,,SKC,0.01,VWS V14.01,2013-04-17 08:20:00,
2013-04-17 04:22:00,70.3,70.3,30.06,South,173,4.2,11.2,100,0.01,,SKC,0.01,VWS V14.01,2013-04-17 08:22:00,
2013-04-17 04:23:00,70.3,70.3,30.06,SE,139,0.0,11.2,100,0.01,,SKC,0.01,VWS V14.01,2013-04-17 08:23:00,
2013-04-17 04:25:00,70.3,70.3,30.06,SE,145,5.5,11.2,100,0.01,,SKC,0.01,VWS V14.01,2013-04-17 08:25:00,
2013-04-17 04:27:00,70.3,70.3,30.06,SE,145,8.1,11.2,100,0.01,,SKC,0.01,VWS V14.01,2013-04-17 08:27:00,
2013-04-17 04:28:00,70.3,70.3,30.06,SSE,156,4.7,11.2,100,0.01,,SKC,0.01,VWS V14.01,2013-04-17 08:28:00,
2013-04-17 04:29:00,70.3,70.2,30.06,SSW,212,4.5,11.2,100,0.01,,SKC,0.01,VWS V14.01,2013-04-17 08:29:00,
2013-04-17 04:30:00,70.3,70.3,30.06,SSE,155,4.3,11.2,100,0.01,,SKC,0.01,VWS V14.01,2013-04-17 08:30:00,
2013-04-17 04:32:00,70.3,70.3,30.05,South,173,4.2,11.2,100,0.01,,SKC,0.01,VWS V14.01,2013-04-17 08:32:00,
2013-04-17 04:33:00,70.3,70.3,30.05,SSE,155,6.2,11.2,100,0.01,,SKC,0.01,VWS V14.01,2013-04-17 08:33:00,
2013-04-17 04:34:00,70.3,70.3,30.06,SSE,163,4.5,11.2,100,0.01,,SKC,0.01,VWS V14.01,2013-04-17 08:34:00,
2013-04-17 04:35:00,70.3,70.3,30.06,SSE,155,2.2,11.2,100,0.01,,SKC,0.01,VWS V14.01,2013-04-17 08:35:00,
2013-04-17 04:37:00,70.3,70.3,30.06,ESE,114,0.0,11.2,100,0.01,,SKC,0.01,VWS V14.01,2013-04-17 08:37:00,
2013-04-17 04:38:00,70.3,70.3,30.06,SE,139,3.6,11.2,100,0.01,,SKC,0.01,VWS V14.01,2013-04-17 08:38:00,
2013-04-17 04:39:00,70.3,70.3,30.06,SSE,152,4.0,11.2,100,0.01,,SKC,0.01,VWS V14.01,2013-04-17 08:39:00,
2013-04-17 04:41:00,70.3,70.3,30.06,SSE,167,4.0,11.2,100,0.01,,SKC,0.01,VWS V14.01,2013-04-17 08:41:00,
2013-04-17 04:42:00,70.4,70.4,30.06,SSE,153,4.3,11.2,100,0.01,,SKC,0.01,VWS V14.01,2013-04-17 08:42:00,
2013-04-17 04:43:00,70.3,70.3,30.06,SSE,166,4.3,11.2,100,0.01,,SKC,0.01,VWS V14.01,2013-04-17 08:43:00,
2013-04-17 04:44:00,70.3,70.3,30.06,SSE,152,3.3,11.2,100,0.01,,SKC,0.01,VWS V14.01,2013-04-17 08:44:00,
2013-04-17 04:46:00,70.4,70.4,30.06,SE,131,1.0,11.2,100,0.01,,SKC,0.01,VWS V14.01,2013-04-17 08:46:00,
2013-04-17 04:47:00,70.4,70.4,30.06,SSE,162,2.7,11.2,100,0.01,,SKC,0.01,VWS V14.01,2013-04-17 08:47:00,
2013-04-17 04:48:00,70.4,70.4,30.06,SSE,158,3.9,11.2,100,0.01,,SKC,0.01,VWS V14.01,2013-04-17 08:48:00,
2013-04-17 04:49:00,70.3,70.3,30.06,ESE,112,1.3,11.2,100,0.01,,SKC,0.01,VWS V14.01,2013-04-17 08:49:00,
2013-04-17 04:52:00,70.4,70.4,30.05,South,191,5.7,11.2,100,0.01,,SKC,0.01,VWS V14.01,2013-04-17 08:52:00,
2013-04-17 04:54:00,70.3,70.3,30.05,South,174,4.1,11.2,100,0.01,,SKC,0.01,VWS V14.01,2013-04-17 08:54:00,
2013-04-17 04:57:00,70.3,70.3,30.05,SE,146,5.5,11.2,100,0.01,,SKC,0.01,VWS V14.01,2013-04-17 08:57:00,
2013-04-17 04:58:00,70.4,70.4,30.05,SSE,156,9.3,11.2,100,0.01,,SKC,0.01,VWS V14.01,2013-04-17 08:58:00,
2013-04-17 04:59:00,70.4,70.4,30.05,South,183,1.6,12.4,100,0.01,,SKC,0.01,VWS V14.01,2013-04-17 08:59:00,
2013-04-17 05:02:00,70.4,70.4,30.05,SSW,197,4.2,12.4,100,0.01,,SKC,0.01,VWS V14.01,2013-04-17 09:02:00,
2013-04-17 05:03:00,70.4,70.4,30.06,SSE,149,3.9,12.4,100,0.01,,SKC,0.01,VWS V14.01,2013-04-17 09:03:00,
2013-04-17 05:04:00,70.5,70.5,30.06,SSE,152,3.6,12.4,100,0.01,,SKC,0.01,VWS V14.01,2013-04-17 09:04:00,
2013-04-17 05:07:00,70.5,70.5,30.06,South,170,8.0,12.4,100,0.01,,SKC,0.01,VWS V14.01,2013-04-17 09:07:00,
2013-04-17 05:08:00,70.4,70.4,30.06,South,184,4.5,12.4,100,0.01,,SKC,0.01,VWS V14.01,2013-04-17 09:08:00,
2013-04-17 05:09:00,70.5,70.5,30.06,South,188,0.0,12.4,100,0.01,,SKC,0.01,VWS V14.01,2013-04-17 09:09:00,
2013-04-17 05:13:00,70.4,70.4,30.06,SSW,207,5.3,12.4,100,0.01,,SKC,0.01,VWS V14.01,2013-04-17 09:13:00,
2013-04-17 05:14:00,70.5,70.5,30.06,SSW,201,0.2,12.4,100,0.01,,SKC,0.01,VWS V14.01,2013-04-17 09:14:00,
2013-04-17 05:18:00,70.5,70.5,30.06,SE,143,1.6,12.4,100,0.01,,SKC,0.01,VWS V14.01,2013-04-17 09:18:00,
2013-04-17 05:19:00,70.5,70.5,30.06,SE,141,0.0,12.4,100,0.01,,SKC,0.01,VWS V14.01,2013-04-17 09:19:00,
2013-04-17 05:20:00,70.5,70.5,30.06,SE,141,0.0,12.4,100,0.01,,SKC,0.01,VWS V14.01,2013-04-17 09:20:00,
2013-04-17 05:23:00,70.4,70.4,30.06,SSE,163,7.4,12.4,100,0.01,,SKC,0.01,VWS V14.01,2013-04-17 09:23:00,
2013-04-17 05:24:00,70.4,70.4,30.06,SSE,159,1.5,12.4,100,0.01,,SKC,0.01,VWS V14.01,2013-04-17 09:24:00,
2013-04-17 05:25:00,70.5,70.5,30.06,SSW,198,7.1,12.4,100,0.01,,SKC,0.01,VWS V14.01,2013-04-17 09:25:00,
2013-04-17 05:28:00,70.4,70.4,30.06,South,172,3.2,12.4,100,0.01,,SKC,0.01,VWS V14.01,2013-04-17 09:28:00,
2013-04-17 05:29:00,70.4,70.4,30.06,North,359,1.6,12.4,100,0.01,,SKC,0.01,VWS V14.01,2013-04-17 09:29:00,
2013-04-17 05:30:00,70.4,70.4,30.06,North,359,2.3,12.4,100,0.01,,SKC,0.01,VWS V14.01,2013-04-17 09:30:00,
2013-04-17 05:33:00,70.4,70.4,30.06,SSE,148,1.9,12.4,100,0.01,,SKC,0.01,VWS V14.01,2013-04-17 09:33:00,
2013-04-17 05:34:00,70.4,70.4,30.06,South,173,3.5,12.4,100,0.01,,SKC,0.01,VWS V14.01,2013-04-17 09:34:00,
2013-04-17 05:35:00,70.4,70.4,30.06,SSE,156,4.7,12.4,100,0.01,,SKC,0.01,VWS V14.01,2013-04-17 09:35:00,
2013-04-17 05:38:00,70.4,70.4,30.06,SE,132,0.0,12.4,100,0.01,,SKC,0.01,VWS V14.01,2013-04-17 09:38:00,
2013-04-17 05:40:00,70.4,70.4,30.06,SSE,160,0.0,12.4,100,0.01,,SKC,0.01,VWS V14.01,2013-04-17 09:40:00,
2013-04-17 05:43:00,70.4,70.4,30.06,SSE,160,0.0,12.4,100,0.01,,SKC,0.01,VWS V14.01,2013-04-17 09:43:00,
2013-04-17 05:44:00,70.4,70.4,30.06,SSE,160,0.0,12.4,100,0.01,,SKC,0.01,VWS V14.01,2013-04-17 09:44:00,
2013-04-17 05:45:00,70.4,70.4,30.06,SSE,160,0.0,12.4,100,0.01,,SKC,0.01,VWS V14.01,2013-04-17 09:45:00,
2013-04-17 05:48:00,70.4,70.4,30.06,South,179,0.0,12.4,100,0.01,,SKC,0.01,VWS V14.01,2013-04-17 09:48:00,
2013-04-17 05:49:00,70.4,70.4,30.06,South,179,0.0,12.4,100,0.01,,SKC,0.01,VWS V14.01,2013-04-17 09:49:00,
2013-04-17 05:50:00,70.4,70.4,30.06,SSE,150,2.7,12.4,100,0.01,,SKC,0.01,VWS V14.01,2013-04-17 09:50:00,
2013-04-17 05:53:00,70.4,70.4,30.06,South,179,0.9,12.4,100,0.01,,SKC,0.01,VWS V14.01,2013-04-17 09:53:00,
2013-04-17 05:54:00,70.3,70.3,30.06,South,179,0.0,12.4,100,0.01,,SKC,0.01,VWS V14.01,2013-04-17 09:54:00,
2013-04-17 05:55:00,70.3,70.3,30.06,SSE,155,4.5,12.4,100,0.01,,SKC,0.01,VWS V14.01,2013-04-17 09:55:00,
2013-04-17 05:59:00,70.4,70.4,30.06,SE,124,0.0,12.4,100,0.01,,SKC,0.01,VWS V14.01,2013-04-17 09:59:00,
2013-04-17 06:00:00,70.5,70.5,30.06,SSE,149,1.6,12.4,100,0.01,,SKC,0.01,VWS V14.01,2013-04-17 10:00:00,
2013-04-17 06:04:00,70.5,70.5,30.06,South,179,2.7,12.4,100,0.01,,SKC,0.01,VWS V14.01,2013-04-17 10:04:00,
2013-04-17 06:05:00,70.5,70.5,30.06,SSE,148,1.4,12.4,100,0.01,,SKC,0.01,VWS V14.01,2013-04-17 10:05:00,
2013-04-17 06:06:00,70.5,70.5,30.07,SSE,148,0.0,12.4,100,0.01,,SKC,0.01,VWS V14.01,2013-04-17 10:06:00,
2013-04-17 06:09:00,70.5,70.5,30.06,SSE,159,0.4,12.4,100,0.01,,SKC,0.01,VWS V14.01,2013-04-17 10:09:00,
2013-04-17 06:10:00,70.6,70.6,30.07,South,176,2.6,12.4,100,0.01,,SKC,0.01,VWS V14.01,2013-04-17 10:10:00,
2013-04-17 06:11:00,70.6,70.6,30.07,South,183,3.7,12.4,100,0.01,,SKC,0.01,VWS V14.01,2013-04-17 10:11:00,
2013-04-17 06:14:00,70.7,70.7,30.07,South,170,5.3,12.4,100,0.01,,SKC,0.01,VWS V14.01,2013-04-17 10:14:00,
2013-04-17 06:15:00,70.7,70.7,30.07,SSE,152,1.2,12.4,100,0.01,,SKC,0.01,VWS V14.01,2013-04-17 10:15:00,
2013-04-17 06:16:00,70.7,70.7,30.07,SSE,166,5.9,12.4,100,0.01,,SKC,0.01,VWS V14.01,2013-04-17 10:16:00,
2013-04-17 06:19:00,70.6,70.6,30.07,South,179,5.0,12.4,100,0.01,,SKC,0.01,VWS V14.01,2013-04-17 10:19:00,
2013-04-17 06:20:00,70.6,70.6,30.07,South,179,2.3,12.4,100,0.01,,SKC,0.01,VWS V14.01,2013-04-17 10:20:00,
2013-04-17 06:21:00,70.6,70.6,30.07,SSW,193,2.8,12.4,100,0.01,,SKC,0.01,VWS V14.01,2013-04-17 10:21:00,
2013-04-17 06:24:00,70.6,70.6,30.07,South,170,9.4,12.4,100,0.01,,SKC,0.01,VWS V14.01,2013-04-17 10:24:00,
2013-04-17 06:25:00,70.6,70.5,30.07,SE,143,1.6,12.4,100,0.01,,SKC,0.01,VWS V14.01,2013-04-17 10:25:00,
2013-04-17 06:26:00,70.6,70.6,30.07,SSE,148,0.2,12.4,100,0.01,,SKC,0.01,VWS V14.01,2013-04-17 10:26:00,
2013-04-17 06:27:00,70.6,70.6,30.07,SSE,159,1.4,12.4,100,0.01,,SKC,0.01,VWS V14.01,2013-04-17 10:27:00,
2013-04-17 06:29:00,70.6,70.5,30.07,SSE,160,0.0,12.4,100,0.01,,SKC,0.01,VWS V14.01,2013-04-17 10:29:00,
2013-04-17 06:30:00,70.6,70.6,30.07,SSE,149,2.0,12.4,100,0.01,,SKC,0.01,VWS V14.01,2013-04-17 10:30:00,
2013-04-17 06:32:00,70.6,70.6,30.07,SSE,155,1.4,12.4,100,0.01,,SKC,0.01,VWS V14.01,2013-04-17 10:32:00,
2013-04-17 06:34:00,70.5,70.5,30.07,SSE,163,3.0,12.4,100,0.01,,SKC,0.01,VWS V14.01,2013-04-17 10:34:00,
2013-04-17 06:35:00,70.5,70.5,30.07,South,170,5.3,12.4,100,0.01,,SKC,0.01,VWS V14.01,2013-04-17 10:35:00,
2013-04-17 06:36:00,70.5,70.5,30.07,SSE,160,4.7,12.4,100,0.01,,SKC,0.01,VWS V14.01,2013-04-17 10:36:00,
2013-04-17 06:37:00,70.5,70.5,30.07,SE,142,0.0,12.4,100,0.01,,SKC,0.01,VWS V14.01,2013-04-17 10:37:00,
2013-04-17 06:40:00,70.6,70.6,30.07,SSE,163,0.0,12.4,100,0.01,,SKC,0.01,VWS V14.01,2013-04-17 10:40:00,
2013-04-17 06:42:00,70.6,70.6,30.07,SSE,163,0.0,12.4,100,0.01,,SKC,0.01,VWS V14.01,2013-04-17 10:42:00,
2013-04-17 06:45:00,70.6,70.6,30.07,South,187,6.0,12.4,100,0.01,,SKC,0.01,VWS V14.01,2013-04-17 10:45:00,
2013-04-17 06:47:00,70.5,70.5,30.07,South,177,1.1,12.4,100,0.01,,SKC,0.01,VWS V14.01,2013-04-17 10:47:00,
2013-04-17 06:50:00,70.5,70.5,30.07,SSW,195,0.0,12.4,100,0.01,,SKC,0.01,VWS V14.01,2013-04-17 10:50:00,
2013-04-17 06:52:00,70.5,70.5,30.07,South,181,0.0,12.4,100,0.01,,SKC,0.01,VWS V14.01,2013-04-17 10:52:00,
2013-04-17 06:55:00,70.5,70.5,30.08,SSW,198,3.7,12.4,100,0.01,,SKC,0.01,VWS V14.01,2013-04-17 10:55:00,
2013-04-17 06:57:00,70.5,70.5,30.08,South,176,2.5,12.4,100,0.01,,SKC,0.01,VWS V14.01,2013-04-17 10:57:00,
2013-04-17 07:00:00,70.5,70.5,30.07,SSE,159,1.9,12.4,100,0.01,,SKC,0.01,VWS V14.01,2013-04-17 11:00:00,
2013-04-17 07:01:00,70.5,70.5,30.08,South,174,5.7,12.4,100,0.01,,SKC,0.01,VWS V14.01,2013-04-17 11:01:00,
2013-04-17 07:02:00,70.5,70.5,30.08,SE,146,0.8,12.4,100,0.01,,SKC,0.01,VWS V14.01,2013-04-17 11:02:00,
2013-04-17 07:03:00,70.5,70.5,30.07,SSE,158,2.5,12.4,100,0.01,,SKC,0.01,VWS V14.01,2013-04-17 11:03:00,
2013-04-17 07:05:00,70.5,70.5,30.07,South,170,2.2,12.4,100,0.01,,SKC,0.01,VWS V14.01,2013-04-17 11:05:00,
2013-04-17 07:06:00,70.5,70.5,30.07,SSE,159,2.8,12.4,100,0.01,,SKC,0.01,VWS V14.01,2013-04-17 11:06:00,
2013-04-17 07:07:00,70.5,70.5,30.07,South,170,6.2,12.4,100,0.01,,SKC,0.01,VWS V14.01,2013-04-17 11:07:00,
2013-04-17 07:08:00,70.5,70.5,30.07,South,173,4.4,12.4,100,0.01,,SKC,0.01,VWS V14.01,2013-04-17 11:08:00,
2013-04-17 07:11:00,70.5,70.5,30.07,SE,132,0.9,12.4,100,0.01,,SKC,0.01,VWS V14.01,2013-04-17 11:11:00,
2013-04-17 07:12:00,70.5,70.5,30.07,SSE,163,3.3,12.4,100,0.01,,SKC,0.01,VWS V14.01,2013-04-17 11:12:00,
2013-04-17 07:13:00,70.5,70.5,30.07,SSE,153,1.6,12.4,100,0.01,,SKC,0.01,VWS V14.01,2013-04-17 11:13:00,
2013-04-17 07:16:00,70.5,70.5,30.08,SSE,166,4.4,12.4,100,0.01,,SKC,0.01,VWS V14.01,2013-04-17 11:16:00,
2013-04-17 07:17:00,70.5,70.5,30.08,South,179,3.7,12.4,100,0.01,,SKC,0.01,VWS V14.01,2013-04-17 11:17:00,
2013-04-17 07:18:00,70.6,70.5,30.08,South,174,3.7,12.4,100,0.01,,SKC,0.01,VWS V14.01,2013-04-17 11:18:00,
2013-04-17 07:21:00,70.5,70.5,30.08,South,173,0.8,12.4,100,0.01,,SKC,0.01,VWS V14.01,2013-04-17 11:21:00,
2013-04-17 07:22:00,70.5,70.5,30.08,SSE,167,4.4,12.4,100,0.01,,SKC,0.01,VWS V14.01,2013-04-17 11:22:00,
2013-04-17 07:23:00,70.5,70.5,30.08,South,184,3.9,12.4,100,0.01,,SKC,0.01,VWS V14.01,2013-04-17 11:23:00,
2013-04-17 07:26:00,70.5,70.5,30.08,South,179,3.0,12.4,100,0.01,,SKC,0.01,VWS V14.01,2013-04-17 11:26:00,
2013-04-17 07:27:00,70.5,70.5,30.08,SSE,166,4.5,12.4,100,0.01,,SKC,0.01,VWS V14.01,2013-04-17 11:27:00,
2013-04-17 07:28:00,70.5,70.5,30.08,SSE,149,7.7,12.4,100,0.01,,SKC,0.01,VWS V14.01,2013-04-17 11:28:00,
2013-04-17 07:31:00,70.5,70.5,30.08,SSE,159,0.7,12.4,100,0.01,,SKC,0.01,VWS V14.01,2013-04-17 11:31:00,
2013-04-17 07:32:00,70.5,70.5,30.08,South,170,6.4,12.4,100,0.01,,SKC,0.01,VWS V14.01,2013-04-17 11:32:00,
2013-04-17 07:33:00,70.5,70.5,30.08,SE,138,0.0,12.4,100,0.01,,SKC,0.01,VWS V14.01,2013-04-17 11:33:00,
2013-04-17 07:34:00,70.5,70.5,30.08,South,183,3.0,12.4,100,0.01,,SKC,0.01,VWS V14.01,2013-04-17 11:34:00,
2013-04-17 07:36:00,70.5,70.5,30.08,SE,131,0.0,12.4,100,0.01,,SKC,0.01,VWS V14.01,2013-04-17 11:36:00,
2013-04-17 07:37:00,70.5,70.5,30.08,SSE,156,4.5,12.4,100,0.01,,SKC,0.01,VWS V14.01,2013-04-17 11:37:00,
2013-04-17 07:38:00,70.5,70.5,30.08,SSE,163,5.2,12.4,100,0.01,,SKC,0.01,VWS V14.01,2013-04-17 11:38:00,
2013-04-17 07:39:00,70.5,70.5,30.09,South,183,5.5,12.4,100,0.01,,SKC,0.01,VWS V14.01,2013-04-17 11:39:00,
2013-04-17 07:42:00,70.5,70.5,30.09,East,101,1.0,12.4,100,0.01,,SKC,0.01,VWS V14.01,2013-04-17 11:42:00,
2013-04-17 07:43:00,70.5,70.5,30.09,SSE,166,2.2,12.4,100,0.01,,SKC,0.01,VWS V14.01,2013-04-17 11:43:00,
2013-04-17 07:44:00,70.5,70.5,30.08,SSE,163,3.9,12.4,100,0.01,,SKC,0.01,VWS V14.01,2013-04-17 11:44:00,
2013-04-17 07:47:00,70.5,70.5,30.09,SE,141,1.5,12.4,100,0.01,,SKC,0.01,VWS V14.01,2013-04-17 11:47:00,
2013-04-17 07:48:00,70.5,70.5,30.09,ESE,104,0.7,12.4,100,0.01,,SKC,0.01,VWS V14.01,2013-04-17 11:48:00,
2013-04-17 07:49:00,70.5,70.5,30.08,SSE,152,2.7,12.4,100,0.01,,SKC,0.01,VWS V14.01,2013-04-17 11:49:00,
2013-04-17 07:52:00,70.5,70.5,30.09,SE,132,1.3,12.4,100,0.01,,SKC,0.01,VWS V14.01,2013-04-17 11:52:00,
2013-04-17 07:53:00,70.5,70.5,30.09,North,359,1.1,12.4,100,0.01,,SKC,0.01,VWS V14.01,2013-04-17 11:53:00,
2013-04-17 07:54:00,70.4,70.4,30.09,North,359,0.0,12.4,100,0.01,,SKC,0.01,VWS V14.01,2013-04-17 11:54:00,
2013-04-17 07:57:00,70.5,70.5,30.09,North,359,0.0,12.4,100,0.01,,SKC,0.01,VWS V14.01,2013-04-17 11:57:00,
2013-04-17 07:58:00,70.5,70.5,30.09,North,359,0.0,12.4,100,0.01,,SKC,0.01,VWS V14.01,2013-04-17 11:58:00,
2013-04-17 07:59:00,70.5,70.5,30.09,North,359,0.0,12.4,100,0.01,,SKC,0.01,VWS V14.01,2013-04-17 11:59:00,
2013-04-17 08:02:00,70.5,70.5,30.09,North,359,0.0,12.4,100,0.01,,SKC,0.01,VWS V14.01,2013-04-17 12:02:00,
2013-04-17 08:04:00,70.5,70.5,30.09,SSW,210,0.0,12.4,100,0.01,,SKC,0.01,VWS V14.01,2013-04-17 12:04:00,
2013-04-17 08:05:00,70.5,70.5,30.09,North,359,0.0,12.4,100,0.01,,SKC,0.01,VWS V14.01,2013-04-17 12:05:00,
2013-04-17 08:07:00,70.5,70.5,30.10,North,359,0.0,12.4,100,0.01,,SKC,0.01,VWS V14.01,2013-04-17 12:07:00,
2013-04-17 08:08:00,70.5,70.5,30.09,North,359,0.0,12.4,100,0.01,,SKC,0.01,VWS V14.01,2013-04-17 12:08:00,
2013-04-17 08:09:00,70.5,70.5,30.10,North,359,0.7,12.4,100,0.01,,SKC,0.01,VWS V14.01,2013-04-17 12:09:00,
2013-04-17 08:10:00,70.5,70.5,30.10,North,359,0.0,12.4,100,0.01,,SKC,0.01,VWS V14.01,2013-04-17 12:10:00,
2013-04-17 08:12:00,70.5,70.5,30.09,North,359,0.0,12.4,100,0.01,,SKC,0.01,VWS V14.01,2013-04-17 12:12:00,
2013-04-17 08:13:00,70.5,70.5,30.09,North,359,0.0,12.4,100,0.01,,SKC,0.01,VWS V14.01,2013-04-17 12:13:00,
2013-04-17 08:14:00,70.5,70.5,30.09,North,359,0.0,12.4,100,0.01,,SKC,0.01,VWS V14.01,2013-04-17 12:14:00,
2013-04-17 08:15:00,70.6,70.6,30.09,North,359,6.6,12.4,100,0.01,,SKC,0.01,VWS V14.01,2013-04-17 12:15:00,
2013-04-17 08:17:00,70.6,70.6,30.09,North,359,6.7,12.4,100,0.01,,SKC,0.01,VWS V14.01,2013-04-17 12:17:00,
2013-04-17 08:18:00,70.5,70.5,30.09,North,359,0.0,12.4,100,0.01,,SKC,0.01,VWS V14.01,2013-04-17 12:18:00,
2013-04-17 08:19:00,70.6,70.6,30.09,SSW,193,5.8,12.4,100,0.01,,SKC,0.01,VWS V14.01,2013-04-17 12:19:00,
2013-04-17 08:20:00,70.6,70.6,30.09,North,359,0.3,12.4,100,0.01,,SKC,0.01,VWS V14.01,2013-04-17 12:20:00,
2013-04-17 08:22:00,70.6,70.6,30.09,North,359,6.3,12.4,100,0.01,,SKC,0.01,VWS V14.01,2013-04-17 12:22:00,
2013-04-17 08:23:00,70.6,70.6,30.10,North,359,0.0,12.4,100,0.01,,SKC,0.01,VWS V14.01,2013-04-17 12:23:00,
2013-04-17 08:24:00,70.6,70.6,30.10,North,359,0.0,12.4,100,0.01,,SKC,0.01,VWS V14.01,2013-04-17 12:24:00,
2013-04-17 08:25:00,70.7,70.7,30.10,North,359,0.2,12.4,100,0.01,,SKC,0.01,VWS V14.01,2013-04-17 12:25:00,
2013-04-17 08:27:00,70.7,70.7,30.10,North,359,0.0,12.4,100,0.01,,SKC,0.01,VWS V14.01,2013-04-17 12:27:00,
2013-04-17 08:28:00,70.6,70.6,30.10,North,359,0.0,12.4,100,0.01,,SKC,0.01,VWS V14.01,2013-04-17 12:28:00,
2013-04-17 08:29:00,70.6,70.6,30.10,North,359,0.0,12.4,100,0.01,,SKC,0.01,VWS V14.01,2013-04-17 12:29:00,
2013-04-17 08:30:00,70.6,70.6,30.10,North,359,0.0,12.4,100,0.01,,SKC,0.01,VWS V14.01,2013-04-17 12:30:00,
2013-04-17 08:32:00,70.6,70.6,30.10,North,359,0.0,12.4,100,0.01,,SKC,0.01,VWS V14.01,2013-04-17 12:32:00,
2013-04-17 08:34:00,70.7,70.7,30.10,North,359,0.0,12.4,100,0.01,,SKC,0.01,VWS V14.01,2013-04-17 12:34:00,
2013-04-17 08:35:00,70.6,70.6,30.10,North,359,0.0,12.4,100,0.01,,SKC,0.01,VWS V14.01,2013-04-17 12:35:00,
2013-04-17 08:36:00,70.6,70.6,30.10,North,359,0.0,12.4,100,0.01,,SKC,0.01,VWS V14.01,2013-04-17 12:36:00,
2013-04-17 08:38:00,70.6,70.6,30.10,North,359,0.0,12.4,100,0.01,,SKC,0.01,VWS V14.01,2013-04-17 12:38:00,
2013-04-17 08:39:00,70.6,70.6,30.11,North,359,0.0,12.4,100,0.01,,SKC,0.01,VWS V14.01,2013-04-17 12:39:00,
2013-04-17 08:40:00,70.6,70.6,30.10,North,359,0.0,12.4,100,0.01,,SKC,0.01,VWS V14.01,2013-04-17 12:40:00,
2013-04-17 08:41:00,70.6,70.6,30.11,North,359,0.0,12.4,100,0.01,,SKC,0.01,VWS V14.01,2013-04-17 12:41:00,
2013-04-17 08:43:00,70.6,70.6,30.11,North,359,0.0,12.4,100,0.01,,SKC,0.01,VWS V14.01,2013-04-17 12:43:00,
2013-04-17 08:44:00,70.7,70.6,30.11,North,359,0.0,12.4,100,0.01,,SKC,0.01,VWS V14.01,2013-04-17 12:44:00,
2013-04-17 08:45:00,70.7,70.7,30.11,North,359,0.0,12.4,100,0.01,,SKC,0.01,VWS V14.01,2013-04-17 12:45:00,
2013-04-17 08:46:00,70.7,70.7,30.11,North,359,0.0,12.4,100,0.01,,SKC,0.01,VWS V14.01,2013-04-17 12:46:00,
2013-04-17 08:48:00,70.7,70.7,30.11,North,359,0.0,12.4,100,0.01,,SKC,0.01,VWS V14.01,2013-04-17 12:48:00,
2013-04-17 08:49:00,70.8,70.8,30.11,North,359,0.0,12.4,100,0.01,,SKC,0.01,VWS V14.01,2013-04-17 12:49:00,
2013-04-17 08:50:00,70.8,70.8,30.11,North,359,0.0,12.4,100,0.01,,SKC,0.01,VWS V14.01,2013-04-17 12:50:00,
2013-04-17 08:52:00,70.8,70.8,30.10,North,359,0.0,12.4,100,0.01,,SKC,0.01,VWS V14.01,2013-04-17 12:52:00,
2013-04-17 08:53:00,70.9,70.9,30.11,North,359,0.0,12.4,100,0.01,,SKC,0.01,VWS V14.01,2013-04-17 12:53:00,
2013-04-17 08:54:00,70.9,70.9,30.11,North,359,0.0,12.4,100,0.01,,SKC,0.01,VWS V14.01,2013-04-17 12:54:00,
2013-04-17 08:55:00,71.0,71.0,30.11,North,359,0.0,12.4,100,0.01,,SKC,0.01,VWS V14.01,2013-04-17 12:55:00,
2013-04-17 08:57:00,71.1,71.1,30.11,North,359,0.0,12.4,100,0.01,,SKC,0.01,VWS V14.01,2013-04-17 12:57:00,
2013-04-17 08:59:00,71.1,71.1,30.10,North,359,0.0,12.4,100,0.01,,SKC,0.01,VWS V14.01,2013-04-17 12:59:00,
2013-04-17 09:00:00,71.2,71.2,30.10,North,359,0.0,12.4,100,0.01,,SKC,0.01,VWS V14.01,2013-04-17 13:00:00,
2013-04-17 09:02:00,71.1,71.1,30.10,North,359,0.0,12.4,100,0.01,,SKC,0.01,VWS V14.01,2013-04-17 13:02:00,
2013-04-17 09:04:00,71.1,71.1,30.10,North,359,0.0,12.4,100,0.01,,SKC,0.01,VWS V14.01,2013-04-17 13:04:00,
2013-04-17 09:05:00,71.2,71.2,30.10,North,359,0.0,12.4,100,0.01,,SKC,0.01,VWS V14.01,2013-04-17 13:05:00,
2013-04-17 09:06:00,71.1,71.1,30.10,North,359,0.0,12.4,100,0.01,,SKC,0.01,VWS V14.01,2013-04-17 13:06:00,
2013-04-17 09:07:00,71.1,71.1,30.10,North,359,0.0,12.4,100,0.01,,SKC,0.01,VWS V14.01,2013-04-17 13:07:00,
2013-04-17 09:09:00,71.2,71.2,30.11,North,359,0.0,12.4,100,0.01,,SKC,0.01,VWS V14.01,2013-04-17 13:09:00,
2013-04-17 09:10:00,71.1,71.1,30.11,North,359,0.0,12.4,100,0.01,,SKC,0.01,VWS V14.01,2013-04-17 13:10:00,
2013-04-17 09:11:00,71.1,71.1,30.11,North,359,0.0,12.4,100,0.01,,SKC,0.01,VWS V14.01,2013-04-17 13:11:00,
2013-04-17 09:12:00,71.2,71.1,30.11,North,359,0.0,12.4,100,0.01,,SKC,0.01,VWS V14.01,2013-04-17 13:12:00,
2013-04-17 09:14:00,71.2,71.2,30.10,North,359,0.0,12.4,100,0.01,,SKC,0.01,VWS V14.01,2013-04-17 13:14:00,
2013-04-17 09:15:00,71.1,71.0,30.10,North,359,0.0,12.4,100,0.01,,SKC,0.01,VWS V14.01,2013-04-17 13:15:00,
2013-04-17 09:16:00,71.1,71.1,30.10,North,359,0.0,12.4,100,0.01,,SKC,0.01,VWS V14.01,2013-04-17 13:16:00,
2013-04-17 09:17:00,71.1,71.1,30.10,North,359,0.0,12.4,100,0.01,,SKC,0.01,VWS V14.01,2013-04-17 13:17:00,
2013-04-17 09:19:00,71.0,71.0,30.10,North,359,0.0,12.4,100,0.01,,SKC,0.01,VWS V14.01,2013-04-17 13:19:00,
2013-04-17 09:20:00,71.0,71.0,30.10,North,359,0.0,12.4,100,0.01,,SKC,0.01,VWS V14.01,2013-04-17 13:20:00,
2013-04-17 09:21:00,71.0,71.0,30.10,North,359,0.0,12.4,100,0.01,,SKC,0.01,VWS V14.01,2013-04-17 13:21:00,
2013-04-17 09:23:00,71.1,71.1,30.10,North,359,0.0,12.4,100,0.01,,SKC,0.01,VWS V14.01,2013-04-17 13:23:00,
2013-04-17 09:24:00,71.1,71.1,30.10,North,359,0.0,12.4,100,0.01,,SKC,0.01,VWS V14.01,2013-04-17 13:24:00,
2013-04-17 09:25:00,71.0,71.0,30.10,North,359,0.0,12.4,100,0.01,,SKC,0.01,VWS V14.01,2013-04-17 13:25:00,
2013-04-17 09:26:00,71.1,71.1,30.10,North,359,0.0,12.4,100,0.01,,SKC,0.01,VWS V14.01,2013-04-17 13:26:00,
2013-04-17 09:28:00,71.1,71.1,30.10,North,359,0.0,12.4,100,0.01,,SKC,0.01,VWS V14.01,2013-04-17 13:28:00,
2013-04-17 09:29:00,71.1,71.1,30.10,North,359,1.0,12.4,100,0.01,,SKC,0.01,VWS V14.01,2013-04-17 13:29:00,
2013-04-17 09:30:00,71.1,71.1,30.10,NNE,13,6.3,12.4,100,0.01,,SKC,0.01,VWS V14.01,2013-04-17 13:30:00,
2013-04-17 09:32:00,71.2,71.2,30.10,North,359,9.3,12.4,100,0.01,,SKC,0.01,VWS V14.01,2013-04-17 13:32:00,
2013-04-17 09:33:00,71.1,71.1,30.09,North,359,4.0,12.9,100,0.01,,SKC,0.01,VWS V14.01,2013-04-17 13:33:00,
2013-04-17 09:34:00,71.1,71.1,30.10,North,359,0.4,12.9,100,0.01,,SKC,0.01,VWS V14.01,2013-04-17 13:34:00,
2013-04-17 09:35:00,71.1,71.1,30.10,South,188,1.1,12.9,100,0.01,,SKC,0.01,VWS V14.01,2013-04-17 13:35:00,
2013-04-17 09:36:00,71.1,71.1,30.10,South,188,2.5,12.9,100,0.01,,SKC,0.01,VWS V14.01,2013-04-17 13:36:00,
2013-04-17 09:37:00,71.0,71.0,30.10,North,359,0.0,12.9,100,0.01,,SKC,0.01,VWS V14.01,2013-04-17 13:37:00,
2013-04-17 09:38:00,71.0,71.0,30.10,North,359,0.0,12.9,100,0.01,,SKC,0.01,VWS V14.01,2013-04-17 13:38:00,
2013-04-17 09:39:00,71.0,71.0,30.10,North,359,0.0,12.9,100,0.01,,SKC,0.01,VWS V14.01,2013-04-17 13:39:00,
2013-04-17 09:40:00,71.1,71.1,30.10,North,359,0.0,12.9,100,0.01,,SKC,0.01,VWS V14.01,2013-04-17 13:40:00,
2013-04-17 09:41:00,71.1,71.1,30.10,North,359,0.0,12.9,100,0.01,,SKC,0.01,VWS V14.01,2013-04-17 13:41:00,
2013-04-17 09:42:00,71.1,71.1,30.10,North,359,0.0,12.9,100,0.01,,SKC,0.01,VWS V14.01,2013-04-17 13:42:00,
2013-04-17 09:43:00,71.2,71.2,30.10,North,359,0.0,12.9,100,0.01,,SKC,0.01,VWS V14.01,2013-04-17 13:43:00,
2013-04-17 09:45:00,71.2,71.2,30.10,North,359,0.0,12.9,100,0.01,,SKC,0.01,VWS V14.01,2013-04-17 13:45:00,
2013-04-17 09:46:00,71.2,71.2,30.10,North,359,0.0,12.9,100,0.01,,SKC,0.01,VWS V14.01,2013-04-17 13:46:00,
2013-04-17 09:47:00,71.2,71.2,30.10,North,359,0.0,12.9,100,0.01,,SKC,0.01,VWS V14.01,2013-04-17 13:47:00,
2013-04-17 09:48:00,71.2,71.2,30.10,North,359,0.0,12.9,100,0.01,,SKC,0.01,VWS V14.01,2013-04-17 13:48:00,
2013-04-17 09:50:00,71.3,71.3,30.10,North,359,0.0,12.9,100,0.01,,SKC,0.01,VWS V14.01,2013-04-17 13:50:00,
2013-04-17 09:51:00,71.3,71.3,30.10,North,359,0.0,12.9,100,0.01,,SKC,0.01,VWS V14.01,2013-04-17 13:51:00,
2013-04-17 09:52:00,71.3,71.3,30.10,North,359,0.0,12.9,100,0.01,,SKC,0.01,VWS V14.01,2013-04-17 13:52:00,
2013-04-17 09:53:00,71.3,71.3,30.10,North,359,0.0,12.9,100,0.01,,SKC,0.01,VWS V14.01,2013-04-17 13:53:00,
2013-04-17 09:55:00,71.4,71.4,30.10,North,359,0.0,12.9,100,0.01,,SKC,0.01,VWS V14.01,2013-04-17 13:55:00,
2013-04-17 09:56:00,71.4,71.4,30.10,North,359,0.0,12.9,100,0.01,,SKC,0.01,VWS V14.01,2013-04-17 13:56:00,
2013-04-17 09:57:00,71.4,71.4,30.10,North,359,0.0,12.9,100,0.01,,SKC,0.01,VWS V14.01,2013-04-17 13:57:00,
2013-04-17 09:58:00,71.5,71.5,30.10,North,359,0.0,12.9,100,0.01,,SKC,0.01,VWS V14.01,2013-04-17 13:58:00,
2013-04-17 10:00:00,71.5,71.5,30.11,North,359,0.0,12.9,100,0.01,,SKC,0.01,VWS V14.01,2013-04-17 14:00:00,
2013-04-17 10:01:00,71.5,71.5,30.10,North,359,0.0,12.9,100,0.01,,SKC,0.01,VWS V14.01,2013-04-17 14:01:00,
2013-04-17 10:02:00,71.6,71.6,30.11,North,359,0.0,12.9,100,0.01,,SKC,0.01,VWS V14.01,2013-04-17 14:02:00,
2013-04-17 10:03:00,71.7,71.7,30.11,North,359,0.0,12.9,100,0.01,,SKC,0.01,VWS V14.01,2013-04-17 14:03:00,
2013-04-17 10:05:00,71.9,71.9,30.11,North,359,0.0,12.9,100,0.01,,SKC,0.01,VWS V14.01,2013-04-17 14:05:00,
2013-04-17 10:06:00,72.0,72.0,30.11,North,359,0.0,12.9,100,0.01,,SKC,0.01,VWS V14.01,2013-04-17 14:06:00,
2013-04-17 10:07:00,72.1,72.1,30.11,North,359,0.0,12.9,100,0.01,,SKC,0.01,VWS V14.01,2013-04-17 14:07:00,
2013-04-17 10:08:00,72.2,72.2,30.11,North,359,0.0,12.9,100,0.01,,SKC,0.01,VWS V14.01,2013-04-17 14:08:00,
2013-04-17 10:10:00,72.3,72.3,30.11,North,359,0.0,12.9,100,0.01,,SKC,0.01,VWS V14.01,2013-04-17 14:10:00,
2013-04-17 10:11:00,72.5,72.5,30.12,South,177,9.4,12.9,100,0.01,,SKC,0.01,VWS V14.01,2013-04-17 14:11:00,
2013-04-17 10:12:00,72.5,72.5,30.11,North,359,0.6,12.9,100,0.01,,SKC,0.01,VWS V14.01,2013-04-17 14:12:00,
2013-04-17 10:13:00,72.6,72.5,30.11,South,186,2.8,12.9,100,0.01,,SKC,0.01,VWS V14.01,2013-04-17 14:13:00,
2013-04-17 10:16:00,72.6,72.6,30.12,North,359,0.0,12.9,100,0.01,,SKC,0.01,VWS V14.01,2013-04-17 14:16:00,
2013-04-17 10:17:00,72.6,72.6,30.12,North,359,0.0,12.9,100,0.01,,SKC,0.01,VWS V14.01,2013-04-17 14:17:00,
2013-04-17 10:18:00,72.5,72.5,30.12,North,359,0.0,12.9,100,0.01,,SKC,0.01,VWS V14.01,2013-04-17 14:18:00,
2013-04-17 10:19:00,72.5,72.6,30.12,North,359,0.4,12.9,100,0.01,,SKC,0.01,VWS V14.01,2013-04-17 14:19:00,
2013-04-17 10:21:00,72.6,72.6,30.12,North,359,0.0,12.9,100,0.01,,SKC,0.01,VWS V14.01,2013-04-17 14:21:00,
2013-04-17 10:22:00,72.5,72.5,30.11,North,359,0.0,12.9,100,0.01,,SKC,0.01,VWS V14.01,2013-04-17 14:22:00,
2013-04-17 10:23:00,72.5,72.5,30.11,North,359,0.0,12.9,100,0.01,,SKC,0.01,VWS V14.01,2013-04-17 14:23:00,
2013-04-17 10:24:00,72.5,72.5,30.12,North,359,0.0,12.9,100,0.01,,SKC,0.01,VWS V14.01,2013-04-17 14:24:00,
2013-04-17 10:26:00,72.4,72.4,30.12,North,359,1.7,12.9,100,0.01,,SKC,0.01,VWS V14.01,2013-04-17 14:26:00,
2013-04-17 10:27:00,72.4,72.4,30.12,North,359,0.0,12.9,100,0.01,,SKC,0.01,VWS V14.01,2013-04-17 14:27:00,
2013-04-17 10:28:00,72.3,72.3,30.12,North,359,0.0,12.9,100,0.01,,SKC,0.01,VWS V14.01,2013-04-17 14:28:00,
2013-04-17 10:29:00,72.3,72.3,30.12,North,359,0.0,12.9,100,0.01,,SKC,0.01,VWS V14.01,2013-04-17 14:29:00,
2013-04-17 10:31:00,72.2,72.2,30.12,North,359,0.0,12.9,100,0.01,,SKC,0.01,VWS V14.01,2013-04-17 14:31:00,
2013-04-17 10:32:00,72.1,72.1,30.12,North,359,0.0,12.9,100,0.01,,SKC,0.01,VWS V14.01,2013-04-17 14:32:00,
2013-04-17 10:33:00,72.1,72.1,30.12,North,359,0.0,12.9,100,0.01,,SKC,0.01,VWS V14.01,2013-04-17 14:33:00,
2013-04-17 10:34:00,72.2,72.2,30.12,North,359,0.0,12.9,100,0.01,,SKC,0.01,VWS V14.01,2013-04-17 14:34:00,
2013-04-17 10:36:00,72.0,72.0,30.12,North,359,0.2,12.9,100,0.01,,SKC,0.01,VWS V14.01,2013-04-17 14:36:00,
2013-04-17 10:37:00,72.0,72.0,30.12,North,359,0.0,12.9,100,0.01,,SKC,0.01,VWS V14.01,2013-04-17 14:37:00,
2013-04-17 10:38:00,72.0,72.0,30.12,North,359,0.0,12.9,100,0.01,,SKC,0.01,VWS V14.01,2013-04-17 14:38:00,
2013-04-17 10:39:00,71.9,71.9,30.11,North,359,0.0,12.9,100,0.01,,SKC,0.01,VWS V14.01,2013-04-17 14:39:00,
2013-04-17 10:41:00,72.0,72.0,30.12,SSW,198,10.2,12.9,100,0.01,,SKC,0.01,VWS V14.01,2013-04-17 14:41:00,
2013-04-17 10:43:00,72.1,72.1,30.12,North,359,1.1,12.9,100,0.01,,SKC,0.01,VWS V14.01,2013-04-17 14:43:00,
2013-04-17 10:44:00,72.3,72.3,30.12,North,359,0.0,12.9,100,0.01,,SKC,0.01,VWS V14.01,2013-04-17 14:44:00,
2013-04-17 10:47:00,72.2,72.2,30.12,North,359,0.0,12.9,100,0.01,,SKC,0.01,VWS V14.01,2013-04-17 14:47:00,
2013-04-17 10:48:00,72.3,72.3,30.12,North,359,0.0,12.9,100,0.01,,SKC,0.01,VWS V14.01,2013-04-17 14:48:00,
2013-04-17 10:50:00,72.4,72.4,30.12,North,359,0.0,12.9,100,0.01,,SKC,0.01,VWS V14.01,2013-04-17 14:50:00,
2013-04-17 10:52:00,72.3,72.3,30.12,North,359,0.0,12.9,100,0.01,,SKC,0.01,VWS V14.01,2013-04-17 14:52:00,
2013-04-17 10:53:00,72.4,72.4,30.12,North,359,0.4,12.9,100,0.01,,SKC,0.01,VWS V14.01,2013-04-17 14:53:00,
2013-04-17 10:55:00,72.3,72.3,30.11,North,359,0.0,12.9,100,0.01,,SKC,0.01,VWS V14.01,2013-04-17 14:55:00,
2013-04-17 10:57:00,72.4,72.4,30.12,North,359,0.0,12.9,100,0.01,,SKC,0.01,VWS V14.01,2013-04-17 14:57:00,
2013-04-17 10:58:00,72.4,72.4,30.12,North,359,0.0,12.9,100,0.01,,SKC,0.01,VWS V14.01,2013-04-17 14:58:00,
2013-04-17 10:59:00,72.4,72.4,30.12,North,359,1.6,12.9,100,0.01,,SKC,0.01,VWS V14.01,2013-04-17 14:59:00,
2013-04-17 11:00:00,72.5,72.5,30.12,North,359,0.5,12.9,100,0.01,,SKC,0.01,VWS V14.01,2013-04-17 15:00:00,
2013-04-17 11:02:00,72.6,72.6,30.12,North,359,0.0,12.9,100,0.01,,SKC,0.01,VWS V14.01,2013-04-17 15:02:00,
2013-04-17 11:03:00,72.6,72.6,30.12,North,359,0.0,12.9,100,0.01,,SKC,0.01,VWS V14.01,2013-04-17 15:03:00,
2013-04-17 11:04:00,72.6,72.6,30.12,North,359,0.0,12.9,100,0.01,,SKC,0.01,VWS V14.01,2013-04-17 15:04:00,
2013-04-17 11:06:00,72.7,72.7,30.12,North,359,0.0,12.9,100,0.01,,SKC,0.01,VWS V14.01,2013-04-17 15:06:00,
2013-04-17 11:07:00,72.8,72.8,30.12,North,359,0.0,12.9,100,0.01,,SKC,0.01,VWS V14.01,2013-04-17 15:07:00,
2013-04-17 11:08:00,72.8,72.8,30.12,North,359,0.0,12.9,100,0.01,,SKC,0.01,VWS V14.01,2013-04-17 15:08:00,
2013-04-17 11:09:00,72.9,72.9,30.12,North,359,0.0,12.9,100,0.01,,SKC,0.01,VWS V14.01,2013-04-17 15:09:00,
2013-04-17 11:11:00,73.0,73.0,30.12,North,359,0.0,12.9,100,0.01,,SKC,0.01,VWS V14.01,2013-04-17 15:11:00,
2013-04-17 11:12:00,73.2,73.2,30.12,North,359,0.0,12.9,100,0.01,,SKC,0.01,VWS V14.01,2013-04-17 15:12:00,
2013-04-17 11:13:00,73.2,73.2,30.13,North,359,0.2,12.9,100,0.01,,SKC,0.01,VWS V14.01,2013-04-17 15:13:00,
2013-04-17 11:14:00,73.2,73.2,30.12,North,359,6.8,12.9,100,0.01,,SKC,0.01,VWS V14.01,2013-04-17 15:14:00,
2013-04-17 11:16:00,73.1,73.1,30.12,SSW,198,0.9,12.9,100,0.01,,SKC,0.01,VWS V14.01,2013-04-17 15:16:00,
2013-04-17 11:17:00,73.2,73.2,30.11,North,359,1.4,12.9,100,0.01,,SKC,0.01,VWS V14.01,2013-04-17 15:17:00,
2013-04-17 11:18:00,73.2,73.2,30.12,North,359,0.8,12.9,100,0.01,,SKC,0.01,VWS V14.01,2013-04-17 15:18:00,
2013-04-17 11:19:00,73.1,73.1,30.12,South,190,0.2,12.9,100,0.01,,SKC,0.01,VWS V14.01,2013-04-17 15:19:00,
2013-04-17 11:21:00,73.1,73.1,30.11,North,359,0.0,14.0,100,0.01,,SKC,0.01,VWS V14.01,2013-04-17 15:21:00,
2013-04-17 11:22:00,73.0,73.0,30.12,North,359,1.4,14.0,100,0.01,,SKC,0.01,VWS V14.01,2013-04-17 15:22:00,
2013-04-17 11:23:00,73.2,73.2,30.12,North,359,5.3,14.0,100,0.01,,SKC,0.01,VWS V14.01,2013-04-17 15:23:00,
2013-04-17 11:24:00,73.2,73.2,30.11,North,359,0.0,14.0,100,0.01,,SKC,0.01,VWS V14.01,2013-04-17 15:24:00,
2013-04-17 11:26:00,73.3,73.3,30.11,South,176,4.3,14.0,100,0.01,,SKC,0.01,VWS V14.01,2013-04-17 15:26:00,
2013-04-17 11:27:00,73.4,73.4,30.12,South,176,8.8,14.0,100,0.01,,SKC,0.01,VWS V14.01,2013-04-17 15:27:00,
2013-04-17 11:28:00,73.6,73.6,30.12,SSW,195,0.0,14.0,100,0.01,,SKC,0.01,VWS V14.01,2013-04-17 15:28:00,
2013-04-17 11:29:00,73.6,73.6,30.12,SSW,195,0.0,14.0,100,0.01,,SKC,0.01,VWS V14.01,2013-04-17 15:29:00,
2013-04-17 11:32:00,73.8,73.8,30.12,North,359,0.0,14.0,100,0.01,,SKC,0.01,VWS V14.01,2013-04-17 15:32:00,
2013-04-17 11:33:00,73.8,73.8,30.13,North,359,0.0,14.0,100,0.01,,SKC,0.01,VWS V14.01,2013-04-17 15:33:00,
2013-04-17 11:34:00,74.0,74.0,30.13,SSW,210,9.6,14.0,100,0.01,,SKC,0.01,VWS V14.01,2013-04-17 15:34:00,
2013-04-17 11:37:00,73.9,73.9,30.12,North,359,0.0,14.0,100,0.01,,SKC,0.01,VWS V14.01,2013-04-17 15:37:00,
2013-04-17 11:39:00,73.9,73.9,30.12,North,359,0.0,14.0,100,0.01,,SKC,0.01,VWS V14.01,2013-04-17 15:39:00,
2013-04-17 11:40:00,73.9,73.9,30.12,North,359,0.0,14.0,100,0.01,,SKC,0.01,VWS V14.01,2013-04-17 15:40:00,
2013-04-17 11:42:00,73.8,73.8,30.12,North,359,0.0,14.0,100,0.01,,SKC,0.01,VWS V14.01,2013-04-17 15:42:00,
2013-04-17 11:44:00,73.8,73.8,30.12,North,359,0.0,14.0,100,0.01,,SKC,0.01,VWS V14.01,2013-04-17 15:44:00,
2013-04-17 11:45:00,73.7,73.7,30.13,North,359,0.0,14.0,100,0.01,,SKC,0.01,VWS V14.01,2013-04-17 15:45:00,
2013-04-17 11:47:00,73.8,73.8,30.13,North,359,0.0,14.0,100,0.01,,SKC,0.01,VWS V14.01,2013-04-17 15:47:00,
2013-04-17 11:49:00,73.8,73.8,30.13,North,359,0.2,14.0,100,0.01,,SKC,0.01,VWS V14.01,2013-04-17 15:49:00,
2013-04-17 11:50:00,73.7,73.7,30.12,North,359,0.0,14.0,100,0.01,,SKC,0.01,VWS V14.01,2013-04-17 15:50:00,
2013-04-17 11:52:00,73.6,73.6,30.12,North,359,0.0,14.0,100,0.01,,SKC,0.01,VWS V14.01,2013-04-17 15:52:00,
2013-04-17 11:53:00,73.6,73.6,30.12,North,359,0.0,14.0,100,0.01,,SKC,0.01,VWS V14.01,2013-04-17 15:53:00,
2013-04-17 11:54:00,73.6,73.6,30.13,North,359,0.0,14.0,100,0.01,,SKC,0.01,VWS V14.01,2013-04-17 15:54:00,
2013-04-17 11:55:00,73.6,73.6,30.13,North,359,0.0,14.0,100,0.01,,SKC,0.01,VWS V14.01,2013-04-17 15:55:00,
2013-04-17 11:57:00,73.6,73.6,30.12,North,359,0.0,14.0,100,0.01,,SKC,0.01,VWS V14.01,2013-04-17 15:57:00,
2013-04-17 11:58:00,73.6,73.6,30.12,North,359,0.0,14.0,100,0.01,,SKC,0.01,VWS V14.01,2013-04-17 15:58:00,
2013-04-17 11:59:00,73.7,73.7,30.12,North,359,0.0,14.0,100,0.01,,SKC,0.01,VWS V14.01,2013-04-17 15:59:00,
2013-04-17 12:00:00,73.7,73.7,30.13,North,359,0.0,14.0,100,0.01,,SKC,0.01,VWS V14.01,2013-04-17 16:00:00,
2013-04-17 12:02:00,73.8,73.8,30.13,North,359,0.0,14.0,100,0.01,,SKC,0.01,VWS V14.01,2013-04-17 16:02:00,
2013-04-17 12:03:00,73.8,73.8,30.13,North,359,0.0,14.0,100,0.01,,SKC,0.01,VWS V14.01,2013-04-17 16:03:00,
2013-04-17 12:04:00,73.8,73.8,30.13,North,359,0.0,14.0,100,0.01,,SKC,0.01,VWS V14.01,2013-04-17 16:04:00,
2013-04-17 12:05:00,73.8,73.8,30.13,North,359,0.0,14.0,100,0.01,,SKC,0.01,VWS V14.01,2013-04-17 16:05:00,
2013-04-17 12:08:00,74.1,74.1,30.13,North,359,0.0,14.0,100,0.01,,SKC,0.01,VWS V14.01,2013-04-17 16:08:00,
2013-04-17 12:10:00,73.8,73.8,30.13,North,359,0.0,14.0,100,0.01,,SKC,0.01,VWS V14.01,2013-04-17 16:10:00,
2013-04-17 12:13:00,73.8,73.8,30.13,North,359,0.2,14.0,100,0.01,,SKC,0.01,VWS V14.01,2013-04-17 16:13:00,
2013-04-17 12:15:00,73.8,73.8,30.13,North,359,0.0,14.0,100,0.01,,SKC,0.01,VWS V14.01,2013-04-17 16:15:00,
2013-04-17 12:16:00,73.8,73.8,30.12,North,359,0.0,14.0,100,0.01,,SKC,0.01,VWS V14.01,2013-04-17 16:16:00,
2013-04-17 12:18:00,73.9,73.9,30.12,North,359,0.0,14.0,100,0.01,,SKC,0.01,VWS V14.01,2013-04-17 16:18:00,
2013-04-17 12:20:00,74.1,74.1,30.12,North,359,0.0,14.0,100,0.01,,SKC,0.01,VWS V14.01,2013-04-17 16:20:00,
2013-04-17 12:21:00,74.2,74.2,30.12,North,359,0.0,14.0,100,0.01,,SKC,0.01,VWS V14.01,2013-04-17 16:21:00,
2013-04-17 12:23:00,74.2,74.2,30.12,North,359,0.0,14.0,100,0.01,,SKC,0.01,VWS V14.01,2013-04-17 16:23:00,
2013-04-17 12:24:00,74.2,74.2,30.12,North,359,7.8,14.0,100,0.01,,SKC,0.01,VWS V14.01,2013-04-17 16:24:00,
2013-04-17 12:25:00,74.2,74.2,30.12,North,359,0.0,14.0,100,0.01,,SKC,0.01,VWS V14.01,2013-04-17 16:25:00,
2013-04-17 12:26:00,74.3,74.3,30.12,North,359,0.0,14.0,100,0.01,,SKC,0.01,VWS V14.01,2013-04-17 16:26:00,
2013-04-17 12:28:00,74.2,74.2,30.12,North,359,0.0,14.0,100,0.01,,SKC,0.01,VWS V14.01,2013-04-17 16:28:00,
2013-04-17 12:29:00,74.1,74.1,30.12,SW,214,0.4,14.0,100,0.01,,SKC,0.01,VWS V14.01,2013-04-17 16:29:00,
2013-04-17 12:30:00,74.2,74.2,30.12,North,359,5.8,14.0,100,0.01,,SKC,0.01,VWS V14.01,2013-04-17 16:30:00,
2013-04-17 12:31:00,74.1,74.2,30.12,South,191,0.0,16.2,100,0.01,,SKC,0.01,VWS V14.01,2013-04-17 16:31:00,
2013-04-17 12:33:00,74.3,74.3,30.12,North,359,0.0,16.2,100,0.01,,SKC,0.01,VWS V14.01,2013-04-17 16:33:00,
2013-04-17 12:34:00,74.3,74.3,30.12,North,359,0.0,16.2,100,0.01,,SKC,0.01,VWS V14.01,2013-04-17 16:34:00,
2013-04-17 12:35:00,74.3,74.3,30.12,North,359,0.0,16.2,100,0.01,,SKC,0.01,VWS V14.01,2013-04-17 16:35:00,
2013-04-17 12:37:00,74.3,74.2,30.12,North,359,0.0,16.2,100,0.01,,SKC,0.01,VWS V14.01,2013-04-17 16:37:00,
2013-04-17 12:38:00,74.1,74.1,30.12,North,359,0.0,16.2,100,0.01,,SKC,0.01,VWS V14.01,2013-04-17 16:38:00,
2013-04-17 12:39:00,74.0,73.9,30.12,North,359,0.0,16.2,100,0.01,,SKC,0.01,VWS V14.01,2013-04-17 16:39:00,
2013-04-17 12:40:00,74.0,74.0,30.12,North,359,0.0,16.2,100,0.01,,SKC,0.01,VWS V14.01,2013-04-17 16:40:00,
2013-04-17 12:42:00,73.9,73.9,30.12,North,359,0.0,16.2,100,0.01,,SKC,0.01,VWS V14.01,2013-04-17 16:42:00,
2013-04-17 12:43:00,73.8,73.8,30.11,North,359,0.0,16.2,100,0.01,,SKC,0.01,VWS V14.01,2013-04-17 16:43:00,
2013-04-17 12:44:00,73.9,73.9,30.12,North,359,0.0,16.2,100,0.01,,SKC,0.01,VWS V14.01,2013-04-17 16:44:00,
2013-04-17 12:46:00,73.9,73.9,30.12,North,359,0.0,16.2,100,0.01,,SKC,0.01,VWS V14.01,2013-04-17 16:46:00,
2013-04-17 12:47:00,73.9,73.9,30.12,North,359,2.1,16.2,100,0.01,,SKC,0.01,VWS V14.01,2013-04-17 16:47:00,
2013-04-17 12:48:00,73.9,73.9,30.11,North,359,1.5,16.2,100,0.01,,SKC,0.01,VWS V14.01,2013-04-17 16:48:00,
2013-04-17 12:49:00,73.8,73.8,30.11,North,359,0.0,16.2,100,0.01,,SKC,0.01,VWS V14.01,2013-04-17 16:49:00,
2013-04-17 12:51:00,73.8,73.8,30.11,North,359,0.0,16.2,100,0.01,,SKC,0.01,VWS V14.01,2013-04-17 16:51:00,
2013-04-17 12:52:00,73.8,73.8,30.12,North,359,0.0,16.2,100,0.01,,SKC,0.01,VWS V14.01,2013-04-17 16:52:00,
2013-04-17 12:53:00,73.8,73.8,30.11,North,359,0.0,16.2,100,0.01,,SKC,0.01,VWS V14.01,2013-04-17 16:53:00,
2013-04-17 12:54:00,73.9,73.8,30.11,North,359,1.2,16.2,100,0.01,,SKC,0.01,VWS V14.01,2013-04-17 16:54:00,
2013-04-17 12:55:00,73.9,73.8,30.12,North,359,0.0,16.2,100,0.01,,SKC,0.01,VWS V14.01,2013-04-17 16:55:00,
2013-04-17 12:57:00,73.5,73.5,30.12,North,359,0.0,16.2,100,0.01,,SKC,0.01,VWS V14.01,2013-04-17 16:57:00,
2013-04-17 12:58:00,73.5,73.5,30.11,North,359,0.0,16.2,100,0.01,,SKC,0.01,VWS V14.01,2013-04-17 16:58:00,
2013-04-17 12:59:00,73.6,73.6,30.12,North,359,0.0,16.2,100,0.01,,SKC,0.01,VWS V14.01,2013-04-17 16:59:00,
2013-04-17 13:00:00,73.6,73.6,30.12,North,359,0.4,16.2,100,0.01,,SKC,0.01,VWS V14.01,2013-04-17 17:00:00,
2013-04-17 13:02:00,73.6,73.6,30.12,North,359,0.0,16.2,100,0.01,,SKC,0.01,VWS V14.01,2013-04-17 17:02:00,
2013-04-17 13:03:00,73.7,73.7,30.12,North,359,0.0,16.2,100,0.01,,SKC,0.01,VWS V14.01,2013-04-17 17:03:00,
2013-04-17 13:04:00,73.8,73.8,30.12,North,359,0.0,16.2,100,0.01,,SKC,0.01,VWS V14.01,2013-04-17 17:04:00,
2013-04-17 13:05:00,73.8,73.8,30.12,North,359,0.0,16.2,100,0.01,,SKC,0.01,VWS V14.01,2013-04-17 17:05:00,
2013-04-17 13:07:00,74.0,74.0,30.12,North,359,0.0,16.2,100,0.01,,SKC,0.01,VWS V14.01,2013-04-17 17:07:00,
2013-04-17 13:08:00,73.9,74.0,30.12,North,359,0.0,16.2,100,0.01,,SKC,0.01,VWS V14.01,2013-04-17 17:08:00,
2013-04-17 13:09:00,73.8,73.8,30.12,North,359,0.0,16.2,100,0.01,,SKC,0.01,VWS V14.01,2013-04-17 17:09:00,
2013-04-17 13:10:00,73.7,73.7,30.12,North,359,0.0,16.2,100,0.01,,SKC,0.01,VWS V14.01,2013-04-17 17:10:00,
2013-04-17 13:12:00,73.7,73.7,30.12,North,359,0.0,16.2,100,0.01,,SKC,0.01,VWS V14.01,2013-04-17 17:12:00,
2013-04-17 13:13:00,73.8,73.8,30.11,North,359,0.0,16.2,100,0.01,,SKC,0.01,VWS V14.01,2013-04-17 17:13:00,
2013-04-17 13:14:00,73.8,73.8,30.12,North,359,0.0,16.2,100,0.01,,SKC,0.01,VWS V14.01,2013-04-17 17:14:00,
2013-04-17 13:15:00,73.7,73.7,30.12,North,359,0.9,16.2,100,0.01,,SKC,0.01,VWS V14.01,2013-04-17 17:15:00,
2013-04-17 13:18:00,73.7,73.7,30.12,North,359,1.6,16.2,100,0.01,,SKC,0.01,VWS V14.01,2013-04-17 17:18:00,
2013-04-17 13:19:00,73.7,73.7,30.11,North,359,0.0,16.2,100,0.01,,SKC,0.01,VWS V14.01,2013-04-17 17:19:00,
2013-04-17 13:20:00,73.8,73.8,30.11,North,359,0.0,16.2,100,0.01,,SKC,0.01,VWS V14.01,2013-04-17 17:20:00,
2013-04-17 13:23:00,73.8,73.8,30.11,North,359,0.0,16.2,100,0.01,,SKC,0.01,VWS V14.01,2013-04-17 17:23:00,
2013-04-17 13:24:00,73.8,73.8,30.11,North,359,0.4,16.2,100,0.01,,SKC,0.01,VWS V14.01,2013-04-17 17:24:00,
2013-04-17 13:25:00,73.8,73.9,30.11,North,359,0.0,16.2,100,0.01,,SKC,0.01,VWS V14.01,2013-04-17 17:25:00,
2013-04-17 13:28:00,74.0,74.0,30.11,North,359,0.0,16.2,100,0.01,,SKC,0.01,VWS V14.01,2013-04-17 17:28:00,
2013-04-17 13:29:00,74.1,74.1,30.11,North,359,0.6,16.2,100,0.01,,SKC,0.01,VWS V14.01,2013-04-17 17:29:00,
2013-04-17 13:30:00,74.1,74.1,30.11,North,359,0.0,16.2,100,0.01,,SKC,0.01,VWS V14.01,2013-04-17 17:30:00,
2013-04-17 13:33:00,74.2,74.2,30.11,North,359,0.0,16.2,100,0.01,,SKC,0.01,VWS V14.01,2013-04-17 17:33:00,
2013-04-17 13:34:00,74.1,74.1,30.11,North,359,0.3,16.2,100,0.01,,SKC,0.01,VWS V14.01,2013-04-17 17:34:00,
2013-04-17 13:35:00,74.0,74.0,30.11,North,359,0.0,16.2,100,0.01,,SKC,0.01,VWS V14.01,2013-04-17 17:35:00,
2013-04-17 13:36:00,74.0,74.0,30.11,North,359,0.0,16.2,100,0.01,,SKC,0.01,VWS V14.01,2013-04-17 17:36:00,
2013-04-17 13:38:00,74.0,74.0,30.11,North,359,1.1,16.2,100,0.01,,SKC,0.01,VWS V14.01,2013-04-17 17:38:00,
2013-04-17 13:39:00,73.9,73.9,30.11,North,359,0.0,16.2,100,0.01,,SKC,0.01,VWS V14.01,2013-04-17 17:39:00,
2013-04-17 13:40:00,74.0,74.0,30.12,South,186,5.0,16.2,100,0.01,,SKC,0.01,VWS V14.01,2013-04-17 17:40:00,
2013-04-17 13:41:00,74.0,74.0,30.12,South,186,0.0,16.2,100,0.01,,SKC,0.01,VWS V14.01,2013-04-17 17:41:00,
2013-04-17 13:44:00,74.0,74.0,30.12,South,186,0.0,16.2,100,0.01,,SKC,0.01,VWS V14.01,2013-04-17 17:44:00,
2013-04-17 13:45:00,74.2,74.2,30.12,South,186,0.0,16.2,100,0.01,,SKC,0.01,VWS V14.01,2013-04-17 17:45:00,
2013-04-17 13:46:00,74.2,74.2,30.12,South,186,0.0,16.2,100,0.01,,SKC,0.01,VWS V14.01,2013-04-17 17:46:00,
2013-04-17 13:49:00,74.3,74.3,30.12,South,186,0.0,16.2,100,0.01,,SKC,0.01,VWS V14.01,2013-04-17 17:49:00,
2013-04-17 13:50:00,74.2,74.2,30.12,North,359,0.3,16.2,100,0.01,,SKC,0.01,VWS V14.01,2013-04-17 17:50:00,
2013-04-17 13:51:00,74.3,74.3,30.12,North,359,0.2,16.2,100,0.01,,SKC,0.01,VWS V14.01,2013-04-17 17:51:00,
2013-04-17 13:54:00,74.6,74.6,30.12,North,359,0.8,16.2,100,0.01,,SKC,0.01,VWS V14.01,2013-04-17 17:54:00,
2013-04-17 13:55:00,74.7,74.7,30.12,North,359,1.3,16.2,100,0.01,,SKC,0.01,VWS V14.01,2013-04-17 17:55:00,
2013-04-17 13:57:00,74.6,74.6,30.11,North,359,0.0,16.2,100,0.01,,SKC,0.01,VWS V14.01,2013-04-17 17:57:00,
2013-04-17 13:59:00,74.7,74.7,30.11,North,359,0.0,16.2,100,0.01,,SKC,0.01,VWS V14.01,2013-04-17 17:59:00,
2013-04-17 14:00:00,74.7,74.7,30.11,North,359,0.0,16.2,100,0.01,,SKC,0.01,VWS V14.01,2013-04-17 18:00:00,
2013-04-17 14:01:00,74.7,74.7,30.11,North,359,0.0,16.2,100,0.01,,SKC,0.01,VWS V14.01,2013-04-17 18:01:00,
2013-04-17 14:02:00,74.7,74.7,30.11,North,359,0.0,16.2,100,0.01,,SKC,0.01,VWS V14.01,2013-04-17 18:02:00,
2013-04-17 14:04:00,74.6,74.6,30.11,North,359,0.0,16.2,100,0.01,,SKC,0.01,VWS V14.01,2013-04-17 18:04:00,
2013-04-17 14:05:00,74.6,74.6,30.11,South,181,0.0,16.2,100,0.01,,SKC,0.01,VWS V14.01,2013-04-17 18:05:00,
2013-04-17 14:06:00,74.6,74.6,30.11,South,181,0.0,16.2,100,0.01,,SKC,0.01,VWS V14.01,2013-04-17 18:06:00,
2013-04-17 14:07:00,74.3,74.3,30.11,South,181,0.0,16.2,100,0.01,,SKC,0.01,VWS V14.01,2013-04-17 18:07:00,
2013-04-17 14:09:00,74.4,74.4,30.12,South,181,0.0,16.2,100,0.01,,SKC,0.01,VWS V14.01,2013-04-17 18:09:00,
2013-04-17 14:11:00,74.2,74.2,30.12,North,359,0.0,17.3,100,0.01,,SKC,0.01,VWS V14.01,2013-04-17 18:11:00,
2013-04-17 14:12:00,74.2,74.2,30.12,North,359,0.0,17.3,100,0.01,,SKC,0.01,VWS V14.01,2013-04-17 18:12:00,
2013-04-17 14:14:00,74.2,74.2,30.11,North,359,0.0,17.3,100,0.01,,SKC,0.01,VWS V14.01,2013-04-17 18:14:00,
2013-04-17 14:16:00,74.4,74.4,30.11,North,359,0.4,17.3,100,0.01,,SKC,0.01,VWS V14.01,2013-04-17 18:16:00,
2013-04-17 14:17:00,74.4,74.4,30.11,North,359,0.0,17.3,100,0.01,,SKC,0.01,VWS V14.01,2013-04-17 18:17:00,
2013-04-17 14:19:00,74.6,74.6,30.11,North,359,2.5,17.3,100,0.01,,SKC,0.01,VWS V14.01,2013-04-17 18:19:00,
2013-04-17 14:21:00,74.6,74.6,30.10,North,359,0.0,17.3,100,0.01,,SKC,0.01,VWS V14.01,2013-04-17 18:21:00,
2013-04-17 14:22:00,74.6,74.6,30.11,North,359,0.0,17.3,100,0.01,,SKC,0.01,VWS V14.01,2013-04-17 18:22:00,
2013-04-17 14:23:00,74.5,74.5,30.11,North,359,0.0,17.3,100,0.01,,SKC,0.01,VWS V14.01,2013-04-17 18:23:00,
2013-04-17 14:24:00,74.5,74.5,30.10,North,359,8.9,17.3,100,0.01,,SKC,0.01,VWS V14.01,2013-04-17 18:24:00,
2013-04-17 14:26:00,74.6,74.6,30.10,North,359,1.6,17.3,100,0.01,,SKC,0.01,VWS V14.01,2013-04-17 18:26:00,
2013-04-17 14:27:00,74.4,74.4,30.10,SSW,200,3.1,19.3,100,0.01,,SKC,0.01,VWS V14.01,2013-04-17 18:27:00,
2013-04-17 14:28:00,74.4,74.4,30.11,North,359,0.0,19.3,100,0.01,,SKC,0.01,VWS V14.01,2013-04-17 18:28:00,
2013-04-17 14:29:00,74.4,74.4,30.11,North,359,0.7,19.3,100,0.01,,SKC,0.01,VWS V14.01,2013-04-17 18:29:00,
2013-04-17 14:31:00,74.4,74.4,30.10,North,359,0.8,19.3,100,0.01,,SKC,0.01,VWS V14.01,2013-04-17 18:31:00,
2013-04-17 14:32:00,74.4,74.4,30.10,North,359,0.0,19.3,100,0.01,,SKC,0.01,VWS V14.01,2013-04-17 18:32:00,
2013-04-17 14:33:00,74.3,74.3,30.11,North,359,0.0,19.3,100,0.01,,SKC,0.01,VWS V14.01,2013-04-17 18:33:00,
2013-04-17 14:35:00,74.5,74.5,30.10,North,359,0.0,19.3,100,0.01,,SKC,0.01,VWS V14.01,2013-04-17 18:35:00,
2013-04-17 14:37:00,74.6,74.7,30.10,North,359,0.0,19.3,100,0.01,,SKC,0.01,VWS V14.01,2013-04-17 18:37:00,
2013-04-17 14:38:00,74.7,74.7,30.10,North,359,0.0,19.3,100,0.01,,SKC,0.01,VWS V14.01,2013-04-17 18:38:00,
2013-04-17 14:40:00,74.8,74.8,30.10,North,359,0.0,19.3,100,0.01,,SKC,0.01,VWS V14.01,2013-04-17 18:40:00,
2013-04-17 14:42:00,74.7,74.7,30.10,North,359,0.0,19.3,100,0.01,,SKC,0.01,VWS V14.01,2013-04-17 18:42:00,
2013-04-17 14:43:00,74.8,74.8,30.10,North,359,0.0,19.3,100,0.01,,SKC,0.01,VWS V14.01,2013-04-17 18:43:00,
2013-04-17 14:45:00,74.6,74.6,30.10,North,359,0.0,19.3,100,0.01,,SKC,0.01,VWS V14.01,2013-04-17 18:45:00,
2013-04-17 14:47:00,74.8,74.8,30.10,North,359,0.0,19.3,100,0.01,,SKC,0.01,VWS V14.01,2013-04-17 18:47:00,
2013-04-17 14:48:00,74.8,74.8,30.10,North,359,0.0,19.3,100,0.01,,SKC,0.01,VWS V14.01,2013-04-17 18:48:00,
2013-04-17 14:50:00,74.8,74.8,30.10,North,359,0.0,19.3,100,0.01,,SKC,0.01,VWS V14.01,2013-04-17 18:50:00,
2013-04-17 14:52:00,74.7,74.7,30.10,North,359,0.0,19.3,100,0.01,,SKC,0.01,VWS V14.01,2013-04-17 18:52:00,
2013-04-17 14:53:00,74.8,74.8,30.10,North,359,0.0,19.3,100,0.01,,SKC,0.01,VWS V14.01,2013-04-17 18:53:00,
2013-04-17 14:55:00,74.7,74.7,30.10,North,359,0.0,19.3,100,0.01,,SKC,0.01,VWS V14.01,2013-04-17 18:55:00,
2013-04-17 14:57:00,74.6,74.6,30.10,North,359,0.0,19.3,100,0.01,,SKC,0.01,VWS V14.01,2013-04-17 18:57:00,
2013-04-17 14:58:00,74.6,74.6,30.10,North,359,0.0,19.3,100,0.01,,SKC,0.01,VWS V14.01,2013-04-17 18:58:00,
2013-04-17 15:00:00,74.5,74.4,30.10,North,359,0.0,19.3,100,0.01,,SKC,0.01,VWS V14.01,2013-04-17 19:00:00,
2013-04-17 15:02:00,74.2,74.2,30.10,North,359,1.9,19.3,100,0.01,,SKC,0.01,VWS V14.01,2013-04-17 19:02:00,
2013-04-17 15:03:00,74.2,74.2,30.10,North,359,0.2,19.3,100,0.01,,SKC,0.01,VWS V14.01,2013-04-17 19:03:00,
2013-04-17 15:06:00,74.5,74.5,30.09,North,359,5.1,19.3,100,0.01,,SKC,0.01,VWS V14.01,2013-04-17 19:06:00,
2013-04-17 15:08:00,74.6,74.6,30.10,South,181,0.0,19.3,100,0.01,,SKC,0.01,VWS V14.01,2013-04-17 19:08:00,
2013-04-17 15:12:00,74.7,74.7,30.10,South,181,0.0,19.3,100,0.01,,SKC,0.01,VWS V14.01,2013-04-17 19:12:00,
2013-04-17 15:13:00,74.6,74.6,30.10,South,181,0.0,19.3,100,0.01,,SKC,0.01,VWS V14.01,2013-04-17 19:13:00,
2013-04-17 15:14:00,74.6,74.6,30.10,South,181,0.0,19.3,100,0.01,,SKC,0.01,VWS V14.01,2013-04-17 19:14:00,
2013-04-17 15:17:00,74.5,74.5,30.10,South,181,0.0,19.3,100,0.01,,SKC,0.01,VWS V14.01,2013-04-17 19:17:00,
2013-04-17 15:18:00,74.5,74.5,30.10,South,181,0.0,19.3,100,0.01,,SKC,0.01,VWS V14.01,2013-04-17 19:18:00,
2013-04-17 15:19:00,74.4,74.4,30.09,South,181,0.0,19.3,100,0.01,,SKC,0.01,VWS V14.01,2013-04-17 19:19:00,
2013-04-17 15:22:00,74.3,74.3,30.09,South,181,0.0,19.3,100,0.01,,SKC,0.01,VWS V14.01,2013-04-17 19:22:00,
2013-04-17 15:23:00,74.4,74.4,30.08,South,181,0.0,19.3,100,0.01,,SKC,0.01,VWS V14.01,2013-04-17 19:23:00,
2013-04-17 15:24:00,74.4,74.4,30.08,South,181,0.0,19.3,100,0.01,,SKC,0.01,VWS V14.01,2013-04-17 19:24:00,
2013-04-17 15:27:00,74.3,74.3,30.09,SSW,208,0.0,19.3,100,0.01,,SKC,0.01,VWS V14.01,2013-04-17 19:27:00,
2013-04-17 15:28:00,74.4,74.4,30.08,SSW,208,0.0,19.3,100,0.01,,SKC,0.01,VWS V14.01,2013-04-17 19:28:00,
2013-04-17 15:29:00,74.5,74.5,30.08,SSW,208,0.0,19.3,100,0.01,,SKC,0.01,VWS V14.01,2013-04-17 19:29:00,
2013-04-17 15:32:00,74.5,74.5,30.08,SSW,205,0.0,19.3,100,0.01,,SKC,0.01,VWS V14.01,2013-04-17 19:32:00,
2013-04-17 15:33:00,74.5,74.5,30.08,SSW,205,0.0,19.3,100,0.01,,SKC,0.01,VWS V14.01,2013-04-17 19:33:00,
2013-04-17 15:34:00,74.5,74.5,30.08,SSW,205,9.2,19.3,100,0.01,,SKC,0.01,VWS V14.01,2013-04-17 19:34:00,
2013-04-17 15:37:00,74.6,74.6,30.08,North,359,1.6,19.3,100,0.01,,SKC,0.01,VWS V14.01,2013-04-17 19:37:00,
2013-04-17 15:38:00,74.6,74.6,30.08,North,359,0.0,19.3,100,0.01,,SKC,0.01,VWS V14.01,2013-04-17 19:38:00,
2013-04-17 15:39:00,74.7,74.7,30.08,North,359,0.0,19.3,100,0.01,,SKC,0.01,VWS V14.01,2013-04-17 19:39:00,
2013-04-17 15:43:00,74.8,74.8,30.08,North,359,0.0,19.3,100,0.01,,SKC,0.01,VWS V14.01,2013-04-17 19:43:00,
2013-04-17 15:44:00,74.9,74.8,30.08,North,359,0.0,19.3,100,0.01,,SKC,0.01,VWS V14.01,2013-04-17 19:44:00,
2013-04-17 15:48:00,74.8,74.8,30.08,North,359,0.0,19.3,100,0.01,,SKC,0.01,VWS V14.01,2013-04-17 19:48:00,
2013-04-17 15:49:00,74.8,74.8,30.09,North,359,0.0,19.3,100,0.01,,SKC,0.01,VWS V14.01,2013-04-17 19:49:00,
2013-04-17 15:53:00,74.6,74.6,30.08,North,359,0.0,19.3,100,0.01,,SKC,0.01,VWS V14.01,2013-04-17 19:53:00,
2013-04-17 15:54:00,74.6,74.6,30.08,North,359,0.0,19.3,100,0.01,,SKC,0.01,VWS V14.01,2013-04-17 19:54:00,
2013-04-17 15:58:00,74.6,74.6,30.08,North,359,0.0,19.3,100,0.01,,SKC,0.01,VWS V14.01,2013-04-17 19:58:00,
2013-04-17 15:59:00,74.8,74.8,30.08,North,359,0.0,19.3,100,0.01,,SKC,0.01,VWS V14.01,2013-04-17 19:59:00,
2013-04-17 16:03:00,74.9,74.9,30.08,South,191,0.0,19.3,100,0.01,,SKC,0.01,VWS V14.01,2013-04-17 20:03:00,
2013-04-17 16:04:00,74.9,74.9,30.08,South,191,0.0,19.3,100,0.01,,SKC,0.01,VWS V14.01,2013-04-17 20:04:00,
2013-04-17 16:05:00,74.9,74.9,30.08,North,359,9.3,19.3,100,0.01,,SKC,0.01,VWS V14.01,2013-04-17 20:05:00,
2013-04-17 16:08:00,75.0,75.0,30.08,SSW,211,0.0,19.3,100,0.01,,SKC,0.01,VWS V14.01,2013-04-17 20:08:00,
2013-04-17 16:09:00,75.2,75.2,30.07,North,359,0.4,19.3,100,0.01,,SKC,0.01,VWS V14.01,2013-04-17 20:09:00,
2013-04-17 16:10:00,75.1,75.1,30.08,South,187,5.6,19.3,100,0.01,,SKC,0.01,VWS V14.01,2013-04-17 20:10:00,
2013-04-17 16:11:00,75.1,75.0,30.08,South,187,0.0,19.3,100,0.01,,SKC,0.01,VWS V14.01,2013-04-17 20:11:00,
2013-04-17 16:13:00,75.0,75.0,30.07,North,359,0.0,19.3,100,0.01,,SKC,0.01,VWS V14.01,2013-04-17 20:13:00,
2013-04-17 16:14:00,75.0,75.0,30.07,North,359,0.0,19.3,100,0.01,,SKC,0.01,VWS V14.01,2013-04-17 20:14:00,
2013-04-17 16:15:00,75.0,75.0,30.07,North,359,0.6,19.3,100,0.01,,SKC,0.01,VWS V14.01,2013-04-17 20:15:00,
2013-04-17 16:16:00,74.9,74.9,30.07,North,359,0.0,19.3,100,0.01,,SKC,0.01,VWS V14.01,2013-04-17 20:16:00,
2013-04-17 16:19:00,74.7,74.7,30.07,North,359,0.0,19.3,100,0.01,,SKC,0.01,VWS V14.01,2013-04-17 20:19:00,
2013-04-17 16:20:00,74.7,74.7,30.07,North,359,0.0,19.3,100,0.01,,SKC,0.01,VWS V14.01,2013-04-17 20:20:00,
2013-04-17 16:22:00,74.7,74.7,30.07,North,359,0.0,19.3,100,0.01,,SKC,0.01,VWS V14.01,2013-04-17 20:22:00,
2013-04-17 16:24:00,74.7,74.7,30.06,SSW,195,0.0,19.3,100,0.01,,SKC,0.01,VWS V14.01,2013-04-17 20:24:00,
2013-04-17 16:25:00,74.8,74.8,30.06,SSW,195,0.0,19.3,100,0.01,,SKC,0.01,VWS V14.01,2013-04-17 20:25:00,
2013-04-17 16:27:00,74.9,74.9,30.06,SSW,195,0.0,19.3,100,0.01,,SKC,0.01,VWS V14.01,2013-04-17 20:27:00,
2013-04-17 16:29:00,74.9,74.9,30.06,North,359,0.0,19.3,100,0.01,,SKC,0.01,VWS V14.01,2013-04-17 20:29:00,
2013-04-17 16:30:00,74.8,74.8,30.06,North,359,0.0,19.3,100,0.01,,SKC,0.01,VWS V14.01,2013-04-17 20:30:00,
2013-04-17 16:32:00,74.7,74.6,30.05,North,359,0.0,19.3,100,0.01,,SKC,0.01,VWS V14.01,2013-04-17 20:32:00,
2013-04-17 16:34:00,74.5,74.5,30.05,North,359,0.7,19.3,100,0.01,,SKC,0.01,VWS V14.01,2013-04-17 20:34:00,
2013-04-17 16:35:00,74.5,74.5,30.06,North,359,0.0,19.3,100,0.01,,SKC,0.01,VWS V14.01,2013-04-17 20:35:00,
2013-04-17 16:37:00,74.4,74.4,30.05,North,359,0.0,19.3,100,0.01,,SKC,0.01,VWS V14.01,2013-04-17 20:37:00,
2013-04-17 16:39:00,74.3,74.3,30.05,North,359,0.6,19.3,100,0.01,,SKC,0.01,VWS V14.01,2013-04-17 20:39:00,
2013-04-17 16:40:00,74.4,74.4,30.05,North,359,0.0,19.3,100,0.01,,SKC,0.01,VWS V14.01,2013-04-17 20:40:00,
2013-04-17 16:41:00,74.4,74.4,30.05,North,359,0.0,19.3,100,0.01,,SKC,0.01,VWS V14.01,2013-04-17 20:41:00,
2013-04-17 16:43:00,74.3,74.3,30.05,North,359,0.0,19.3,100,0.01,,SKC,0.01,VWS V14.01,2013-04-17 20:43:00,
2013-04-17 16:45:00,74.3,74.3,30.05,North,359,0.2,19.3,100,0.01,,SKC,0.01,VWS V14.01,2013-04-17 20:45:00,
2013-04-17 16:46:00,74.3,74.3,30.05,North,359,2.9,19.3,100,0.01,,SKC,0.01,VWS V14.01,2013-04-17 20:46:00,
2013-04-17 16:48:00,74.3,74.2,30.05,North,359,0.0,19.3,100,0.01,,SKC,0.01,VWS V14.01,2013-04-17 20:48:00,
2013-04-17 16:50:00,74.2,74.3,30.05,North,359,7.3,19.3,100,0.01,,SKC,0.01,VWS V14.01,2013-04-17 20:50:00,
2013-04-17 16:51:00,74.3,74.3,30.05,North,359,0.0,19.3,100,0.01,,SKC,0.01,VWS V14.01,2013-04-17 20:51:00,
2013-04-17 16:53:00,74.2,74.2,30.05,North,359,2.1,19.3,100,0.01,,SKC,0.01,VWS V14.01,2013-04-17 20:53:00,
2013-04-17 16:55:00,74.3,74.3,30.05,North,359,0.0,19.3,100,0.01,,SKC,0.01,VWS V14.01,2013-04-17 20:55:00,
2013-04-17 16:56:00,74.2,74.2,30.05,North,359,0.0,19.3,100,0.01,,SKC,0.01,VWS V14.01,2013-04-17 20:56:00,
2013-04-17 16:58:00,74.2,74.2,30.04,North,359,0.3,19.3,100,0.01,,SKC,0.01,VWS V14.01,2013-04-17 20:58:00,
2013-04-17 17:00:00,74.1,74.1,30.04,North,359,0.0,19.3,100,0.01,,SKC,0.01,VWS V14.01,2013-04-17 21:00:00,
2013-04-17 17:01:00,74.1,74.1,30.04,North,359,0.0,19.3,100,0.01,,SKC,0.01,VWS V14.01,2013-04-17 21:01:00,
2013-04-17 17:02:00,74.1,74.1,30.04,North,359,0.0,19.3,100,0.01,,SKC,0.01,VWS V14.01,2013-04-17 21:02:00,
2013-04-17 17:03:00,74.1,74.1,30.04,North,359,0.0,19.3,100,0.01,,SKC,0.01,VWS V14.01,2013-04-17 21:03:00,
2013-04-17 17:05:00,74.1,74.1,30.04,North,359,0.0,19.3,100,0.01,,SKC,0.01,VWS V14.01,2013-04-17 21:05:00,
2013-04-17 17:06:00,74.2,74.2,30.04,North,359,0.0,19.3,100,0.01,,SKC,0.01,VWS V14.01,2013-04-17 21:06:00,
2013-04-17 17:07:00,74.2,74.2,30.04,North,359,0.0,19.3,100,0.01,,SKC,0.01,VWS V14.01,2013-04-17 21:07:00,
2013-04-17 17:08:00,74.2,74.2,30.04,North,359,0.0,19.3,100,0.01,,SKC,0.01,VWS V14.01,2013-04-17 21:08:00,
2013-04-17 17:10:00,74.2,74.2,30.04,North,359,0.0,19.3,100,0.01,,SKC,0.01,VWS V14.01,2013-04-17 21:10:00,
2013-04-17 17:11:00,74.1,74.1,30.04,North,359,0.9,19.3,100,0.01,,SKC,0.01,VWS V14.01,2013-04-17 21:11:00,
2013-04-17 17:12:00,74.1,74.1,30.04,North,359,0.0,19.3,100,0.01,,SKC,0.01,VWS V14.01,2013-04-17 21:12:00,
2013-04-17 17:13:00,74.0,74.0,30.04,North,359,0.0,19.3,100,0.01,,SKC,0.01,VWS V14.01,2013-04-17 21:13:00,
2013-04-17 17:15:00,74.0,74.0,30.03,North,359,0.6,19.3,100,0.01,,SKC,0.01,VWS V14.01,2013-04-17 21:15:00,
2013-04-17 17:17:00,74.0,74.0,30.04,North,359,0.0,19.3,100,0.01,,SKC,0.01,VWS V14.01,2013-04-17 21:17:00,
2013-04-17 17:18:00,74.0,74.0,30.04,North,359,1.6,19.3,100,0.01,,SKC,0.01,VWS V14.01,2013-04-17 21:18:00,
2013-04-17 17:21:00,73.9,73.9,30.04,North,359,0.0,19.3,100,0.01,,SKC,0.01,VWS V14.01,2013-04-17 21:21:00,
2013-04-17 17:22:00,73.9,73.9,30.04,North,359,0.0,19.3,100,0.01,,SKC,0.01,VWS V14.01,2013-04-17 21:22:00,
2013-04-17 17:23:00,74.0,74.0,30.04,North,359,0.0,19.3,100,0.01,,SKC,0.01,VWS V14.01,2013-04-17 21:23:00,
2013-04-17 17:26:00,73.9,73.9,30.04,North,359,0.0,19.3,100,0.01,,SKC,0.01,VWS V14.01,2013-04-17 21:26:00,
2013-04-17 17:27:00,74.0,74.0,30.04,North,359,0.2,19.3,100,0.01,,SKC,0.01,VWS V14.01,2013-04-17 21:27:00,
2013-04-17 17:28:00,74.0,74.0,30.04,North,359,0.0,19.3,100,0.01,,SKC,0.01,VWS V14.01,2013-04-17 21:28:00,
2013-04-17 17:31:00,74.0,74.0,30.03,North,359,0.0,19.3,100,0.01,,SKC,0.01,VWS V14.01,2013-04-17 21:31:00,
2013-04-17 17:32:00,74.0,74.0,30.04,North,359,0.0,19.3,100,0.01,,SKC,0.01,VWS V14.01,2013-04-17 21:32:00,
2013-04-17 17:33:00,74.1,74.1,30.04,North,359,1.1,19.3,100,0.01,,SKC,0.01,VWS V14.01,2013-04-17 21:33:00,
2013-04-17 17:34:00,74.0,74.0,30.04,North,359,0.0,19.3,100,0.01,,SKC,0.01,VWS V14.01,2013-04-17 21:34:00,
2013-04-17 17:36:00,74.1,74.1,30.03,North,359,0.0,19.3,100,0.01,,SKC,0.01,VWS V14.01,2013-04-17 21:36:00,
2013-04-17 17:37:00,74.0,74.0,30.03,North,359,0.0,19.3,100,0.01,,SKC,0.01,VWS V14.01,2013-04-17 21:37:00,
2013-04-17 17:38:00,74.1,74.1,30.03,North,359,0.0,19.3,100,0.01,,SKC,0.01,VWS V14.01,2013-04-17 21:38:00,
2013-04-17 17:39:00,74.1,74.1,30.03,North,359,0.0,19.3,100,0.01,,SKC,0.01,VWS V14.01,2013-04-17 21:39:00,
2013-04-17 17:41:00,73.9,73.9,30.03,North,359,0.0,19.3,100,0.01,,SKC,0.01,VWS V14.01,2013-04-17 21:41:00,
2013-04-17 17:42:00,73.9,73.9,30.03,North,359,0.0,19.3,100,0.01,,SKC,0.01,VWS V14.01,2013-04-17 21:42:00,
2013-04-17 17:43:00,74.0,74.0,30.03,North,359,0.0,19.3,100,0.01,,SKC,0.01,VWS V14.01,2013-04-17 21:43:00,
2013-04-17 17:44:00,74.0,74.0,30.03,North,359,0.0,19.3,100,0.01,,SKC,0.01,VWS V14.01,2013-04-17 21:44:00,
2013-04-17 17:46:00,73.8,73.8,30.03,North,359,0.0,19.3,100,0.01,,SKC,0.01,VWS V14.01,2013-04-17 21:46:00,
2013-04-17 17:47:00,73.7,73.7,30.03,North,359,0.0,19.3,100,0.01,,SKC,0.01,VWS V14.01,2013-04-17 21:47:00,
2013-04-17 17:48:00,73.7,73.7,30.03,North,359,0.0,19.3,100,0.01,,SKC,0.01,VWS V14.01,2013-04-17 21:48:00,
2013-04-17 17:49:00,73.6,73.6,30.02,North,359,0.0,19.3,100,0.01,,SKC,0.01,VWS V14.01,2013-04-17 21:49:00,
2013-04-17 17:52:00,73.6,73.6,30.02,North,359,0.0,19.3,100,0.01,,SKC,0.01,VWS V14.01,2013-04-17 21:52:00,
2013-04-17 17:53:00,73.5,73.5,30.02,North,359,0.0,19.3,100,0.01,,SKC,0.01,VWS V14.01,2013-04-17 21:53:00,
2013-04-17 17:54:00,73.5,73.5,30.03,North,359,0.0,19.3,100,0.01,,SKC,0.01,VWS V14.01,2013-04-17 21:54:00,
2013-04-17 17:57:00,73.4,73.4,30.02,North,359,0.0,19.3,100,0.01,,SKC,0.01,VWS V14.01,2013-04-17 21:57:00,
2013-04-17 17:58:00,73.4,73.4,30.03,North,359,0.0,19.3,100,0.01,,SKC,0.01,VWS V14.01,2013-04-17 21:58:00,
2013-04-17 17:59:00,73.4,73.4,30.02,North,359,0.0,19.3,100,0.01,,SKC,0.01,VWS V14.01,2013-04-17 21:59:00,
2013-04-17 18:02:00,73.4,73.4,30.02,North,359,0.0,19.3,100,0.01,,SKC,0.01,VWS V14.01,2013-04-17 22:02:00,
2013-04-17 18:03:00,73.4,73.4,30.03,North,359,0.0,19.3,100,0.01,,SKC,0.01,VWS V14.01,2013-04-17 22:03:00,
2013-04-17 18:04:00,73.5,73.5,30.03,North,359,0.0,19.3,100,0.01,,SKC,0.01,VWS V14.01,2013-04-17 22:04:00,
2013-04-17 18:08:00,73.3,73.3,30.03,North,359,0.0,19.3,100,0.01,,SKC,0.01,VWS V14.01,2013-04-17 22:08:00,
2013-04-17 18:09:00,73.3,73.3,30.02,North,359,0.0,19.3,100,0.01,,SKC,0.01,VWS V14.01,2013-04-17 22:09:00,
2013-04-17 18:13:00,73.2,73.2,30.03,North,359,0.0,19.3,100,0.01,,SKC,0.01,VWS V14.01,2013-04-17 22:13:00,
2013-04-17 18:14:00,73.1,73.1,30.03,North,359,0.0,19.3,100,0.01,,SKC,0.01,VWS V14.01,2013-04-17 22:14:00,
2013-04-17 18:18:00,73.0,73.0,30.03,North,359,0.0,19.3,100,0.01,,SKC,0.01,VWS V14.01,2013-04-17 22:18:00,
2013-04-17 18:19:00,72.9,72.9,30.03,North,359,0.0,19.3,100,0.01,,SKC,0.01,VWS V14.01,2013-04-17 22:19:00,
2013-04-17 18:23:00,72.8,72.8,30.03,North,359,0.0,19.3,100,0.01,,SKC,0.01,VWS V14.01,2013-04-17 22:23:00,
2013-04-17 18:24:00,72.7,72.7,30.03,North,359,0.0,19.3,100,0.01,,SKC,0.01,VWS V14.01,2013-04-17 22:24:00,
2013-04-17 18:28:00,72.6,72.6,30.04,North,359,0.0,19.3,100,0.01,,SKC,0.01,VWS V14.01,2013-04-17 22:28:00,
2013-04-17 18:29:00,72.6,72.6,30.04,North,359,0.0,19.3,100,0.01,,SKC,0.01,VWS V14.01,2013-04-17 22:29:00,
2013-04-17 18:33:00,72.5,72.5,30.04,North,359,0.0,19.3,100,0.01,,SKC,0.01,VWS V14.01,2013-04-17 22:33:00,
2013-04-17 18:34:00,72.5,72.5,30.04,North,359,0.3,19.3,100,0.01,,SKC,0.01,VWS V14.01,2013-04-17 22:34:00,
2013-04-17 18:39:00,72.6,72.6,30.04,North,359,0.0,19.3,100,0.01,,SKC,0.01,VWS V14.01,2013-04-17 22:39:00,
2013-04-17 18:40:00,72.6,72.6,30.03,North,359,0.6,19.3,100,0.01,,SKC,0.01,VWS V14.01,2013-04-17 22:40:00,
2013-04-17 18:44:00,72.4,72.5,30.04,North,359,1.3,19.3,100,0.01,,SKC,0.01,VWS V14.01,2013-04-17 22:44:00,
2013-04-17 18:45:00,72.5,72.5,30.03,North,359,0.0,19.3,100,0.01,,SKC,0.01,VWS V14.01,2013-04-17 22:45:00,
2013-04-17 18:49:00,72.6,72.6,30.04,North,359,0.0,19.3,100,0.01,,SKC,0.01,VWS V14.01,2013-04-17 22:49:00,
2013-04-17 18:50:00,72.5,72.5,30.04,North,359,0.0,19.3,100,0.01,,SKC,0.01,VWS V14.01,2013-04-17 22:50:00,
2013-04-17 18:54:00,72.5,72.5,30.03,North,359,0.0,19.3,100,0.01,,SKC,0.01,VWS V14.01,2013-04-17 22:54:00,
2013-04-17 18:55:00,72.6,72.6,30.03,North,359,0.0,19.3,100,0.01,,SKC,0.01,VWS V14.01,2013-04-17 22:55:00,
2013-04-17 18:59:00,72.5,72.5,30.03,South,190,0.3,19.3,100,0.01,,SKC,0.01,VWS V14.01,2013-04-17 22:59:00,
2013-04-17 19:00:00,72.6,72.6,30.03,SSW,207,8.7,19.3,100,0.01,,SKC,0.01,VWS V14.01,2013-04-17 23:00:00,
2013-04-17 19:05:00,72.5,72.5,30.03,South,187,1.2,19.3,100,0.01,,SKC,0.01,VWS V14.01,2013-04-17 23:05:00,
2013-04-17 19:10:00,72.7,72.7,30.03,SSW,198,0.9,19.3,100,0.01,,SKC,0.01,VWS V14.01,2013-04-17 23:10:00,
2013-04-17 19:15:00,72.7,72.7,30.02,SW,219,10.6,19.3,100,0.01,,SKC,0.01,VWS V14.01,2013-04-17 23:15:00,
2013-04-17 19:20:00,72.6,72.6,30.02,South,177,9.0,19.3,100,0.01,,SKC,0.01,VWS V14.01,2013-04-17 23:20:00,
2013-04-17 19:21:00,72.6,72.6,30.02,North,359,9.1,19.3,100,0.01,,SKC,0.01,VWS V14.01,2013-04-17 23:21:00,
2013-04-17 19:25:00,72.7,72.7,30.02,South,187,4.7,19.3,100,0.01,,SKC,0.01,VWS V14.01,2013-04-17 23:25:00,
2013-04-17 19:26:00,72.6,72.6,30.02,SSW,197,5.3,19.3,100,0.01,,SKC,0.01,VWS V14.01,2013-04-17 23:26:00,
2013-04-17 19:30:00,72.6,72.6,30.02,South,191,6.4,19.3,100,0.01,,SKC,0.01,VWS V14.01,2013-04-17 23:30:00,
2013-04-17 19:31:00,72.7,72.6,30.02,North,359,3.3,19.3,100,0.01,,SKC,0.01,VWS V14.01,2013-04-17 23:31:00,
2013-04-17 19:35:00,72.6,72.6,30.02,South,187,5.0,19.3,100,0.01,,SKC,0.01,VWS V14.01,2013-04-17 23:35:00,
2013-04-17 19:36:00,72.6,72.6,30.02,South,187,7.3,19.3,100,0.01,,SKC,0.01,VWS V14.01,2013-04-17 23:36:00,
2013-04-17 19:40:00,72.6,72.6,30.02,North,359,0.7,19.3,100,0.01,,SKC,0.01,VWS V14.01,2013-04-17 23:40:00,
2013-04-17 19:41:00,72.6,72.6,30.02,South,179,7.5,19.3,100,0.01,,SKC,0.01,VWS V14.01,2013-04-17 23:41:00,
2013-04-17 19:42:00,72.5,72.5,30.03,South,173,3.2,19.3,100,0.01,,SKC,0.01,VWS V14.01,2013-04-17 23:42:00,
2013-04-17 19:45:00,72.4,72.4,30.03,South,181,0.0,19.3,100,0.01,,SKC,0.01,VWS V14.01,2013-04-17 23:45:00,
2013-04-17 19:46:00,72.4,72.4,30.03,South,188,2.8,19.3,100,0.01,,SKC,0.01,VWS V14.01,2013-04-17 23:46:00,
2013-04-17 19:47:00,72.4,72.4,30.03,North,359,0.0,19.3,100,0.01,,SKC,0.01,VWS V14.01,2013-04-17 23:47:00,
2013-04-17 19:51:00,72.2,72.2,30.02,North,359,3.4,19.3,100,0.01,,SKC,0.01,VWS V14.01,2013-04-17 23:51:00,
2013-04-17 19:52:00,72.2,72.2,30.02,North,359,0.0,19.3,100,0.01,,SKC,0.01,VWS V14.01,2013-04-17 23:52:00,
2013-04-17 19:56:00,72.2,72.2,30.02,North,359,0.2,19.3,100,0.01,,SKC,0.01,VWS V14.01,2013-04-17 23:56:00,
2013-04-17 19:57:00,72.2,72.1,30.02,North,359,0.0,19.3,100,0.01,,SKC,0.01,VWS V14.01,2013-04-17 23:57:00,
2013-04-17 20:01:00,71.9,71.9,30.02,North,359,1.0,19.3,100,0.01,,SKC,0.01,VWS V14.01,2013-04-18 00:01:00,
2013-04-17 20:02:00,72.0,72.0,30.02,North,359,0.6,19.3,100,0.01,,SKC,0.01,VWS V14.01,2013-04-18 00:02:00,
2013-04-17 20:03:00,71.9,72.0,30.02,North,359,0.0,19.3,100,0.01,,SKC,0.01,VWS V14.01,2013-04-18 00:03:00,
2013-04-17 20:06:00,71.9,71.9,30.03,SSW,201,0.2,19.3,100,0.01,,SKC,0.01,VWS V14.01,2013-04-18 00:06:00,
2013-04-17 20:07:00,72.0,72.0,30.03,South,187,1.5,19.3,100,0.01,,SKC,0.01,VWS V14.01,2013-04-18 00:07:00,
2013-04-17 20:08:00,71.9,71.9,30.02,SSE,160,13.5,19.3,100,0.01,,SKC,0.01,VWS V14.01,2013-04-18 00:08:00,
2013-04-17 20:12:00,71.9,71.9,30.02,South,180,4.2,19.3,100,0.01,,SKC,0.01,VWS V14.01,2013-04-18 00:12:00,
2013-04-17 20:13:00,71.9,71.9,30.02,South,181,7.6,19.3,100,0.01,,SKC,0.01,VWS V14.01,2013-04-18 00:13:00,
2013-04-17 20:17:00,71.8,71.8,30.02,South,181,7.6,19.3,100,0.01,,SKC,0.01,VWS V14.01,2013-04-18 00:17:00,
2013-04-17 20:18:00,71.8,71.8,30.02,SSW,200,0.5,19.3,100,0.01,,SKC,0.01,VWS V14.01,2013-04-18 00:18:00,
2013-04-17 20:22:00,71.8,71.8,30.02,South,181,11.6,19.3,100,0.01,,SKC,0.01,VWS V14.01,2013-04-18 00:22:00,
2013-04-17 20:23:00,71.7,71.7,30.02,South,191,1.2,19.3,100,0.01,,SKC,0.01,VWS V14.01,2013-04-18 00:23:00,
2013-04-17 20:27:00,71.6,71.6,30.01,South,179,9.1,19.3,100,0.01,,SKC,0.01,VWS V14.01,2013-04-18 00:27:00,
2013-04-17 20:28:00,71.6,71.6,30.02,North,359,8.4,19.3,100,0.01,,SKC,0.01,VWS V14.01,2013-04-18 00:28:00,
2013-04-17 20:29:00,71.7,71.7,30.02,South,186,1.6,19.3,100,0.01,,SKC,0.01,VWS V14.01,2013-04-18 00:29:00,
2013-04-17 20:32:00,71.7,71.7,30.02,South,181,0.4,19.3,100,0.01,,SKC,0.01,VWS V14.01,2013-04-18 00:32:00,
2013-04-17 20:33:00,71.7,71.7,30.02,South,177,9.4,19.3,100,0.01,,SKC,0.01,VWS V14.01,2013-04-18 00:33:00,
2013-04-17 20:34:00,71.6,71.6,30.02,North,359,3.4,19.3,100,0.01,,SKC,0.01,VWS V14.01,2013-04-18 00:34:00,
2013-04-17 20:38:00,71.6,71.6,30.02,North,359,9.1,19.3,100,0.01,,SKC,0.01,VWS V14.01,2013-04-18 00:38:00,
2013-04-17 20:39:00,71.7,71.7,30.02,SSW,198,1.9,19.3,100,0.01,,SKC,0.01,VWS V14.01,2013-04-18 00:39:00,
2013-04-17 20:43:00,71.5,71.5,30.02,North,359,12.3,19.3,100,0.01,,SKC,0.01,VWS V14.01,2013-04-18 00:43:00,
2013-04-17 20:44:00,71.6,71.6,30.02,North,359,5.3,19.3,100,0.01,,SKC,0.01,VWS V14.01,2013-04-18 00:44:00,
2013-04-17 20:48:00,71.7,71.7,30.02,North,359,1.6,19.3,100,0.01,,SKC,0.01,VWS V14.01,2013-04-18 00:48:00,
2013-04-17 20:49:00,71.6,71.6,30.02,SSW,204,9.4,19.3,100,0.01,,SKC,0.01,VWS V14.01,2013-04-18 00:49:00,
2013-04-17 20:53:00,71.5,71.5,30.02,SSW,200,7.8,19.3,100,0.01,,SKC,0.01,VWS V14.01,2013-04-18 00:53:00,
2013-04-17 20:54:00,71.5,71.5,30.02,North,359,0.4,19.3,100,0.01,,SKC,0.01,VWS V14.01,2013-04-18 00:54:00,
2013-04-17 20:58:00,71.5,71.5,30.02,SSW,194,6.2,19.3,100,0.01,,SKC,0.01,VWS V14.01,2013-04-18 00:58:00,
2013-04-17 20:59:00,71.5,71.5,30.02,SSW,208,3.5,19.3,100,0.01,,SKC,0.01,VWS V14.01,2013-04-18 00:59:00,
2013-04-17 21:03:00,71.5,71.5,30.02,South,181,6.3,19.3,100,0.01,,SKC,0.01,VWS V14.01,2013-04-18 01:03:00,
2013-04-17 21:04:00,71.5,71.5,30.02,South,180,5.3,19.3,100,0.01,,SKC,0.01,VWS V14.01,2013-04-18 01:04:00,
2013-04-17 21:09:00,71.4,71.4,30.02,SW,214,7.4,19.3,100,0.01,,SKC,0.01,VWS V14.01,2013-04-18 01:09:00,
2013-04-17 21:14:00,71.5,71.4,30.02,SSW,205,3.4,19.3,100,0.01,,SKC,0.01,VWS V14.01,2013-04-18 01:14:00,
2013-04-17 21:15:00,71.5,71.5,30.02,South,173,4.9,19.3,100,0.01,,SKC,0.01,VWS V14.01,2013-04-18 01:15:00,
2013-04-17 21:19:00,71.4,71.4,30.02,South,179,2.9,19.3,100,0.01,,SKC,0.01,VWS V14.01,2013-04-18 01:19:00,
2013-04-17 21:20:00,71.5,71.5,30.03,SSW,208,3.5,19.3,100,0.01,,SKC,0.01,VWS V14.01,2013-04-18 01:20:00,
2013-04-17 21:24:00,71.4,71.4,30.02,SSW,194,8.1,19.3,100,0.01,,SKC,0.01,VWS V14.01,2013-04-18 01:24:00,
2013-04-17 21:25:00,71.4,71.4,30.02,SSW,198,5.0,19.3,100,0.01,,SKC,0.01,VWS V14.01,2013-04-18 01:25:00,
2013-04-17 21:29:00,71.4,71.4,30.02,South,184,1.6,19.3,100,0.01,,SKC,0.01,VWS V14.01,2013-04-18 01:29:00,
2013-04-17 21:30:00,71.4,71.4,30.02,South,172,5.2,19.3,100,0.01,,SKC,0.01,VWS V14.01,2013-04-18 01:30:00,
2013-04-17 21:34:00,71.4,71.4,30.03,North,359,1.7,19.3,100,0.01,,SKC,0.01,VWS V14.01,2013-04-18 01:34:00,
2013-04-17 21:35:00,71.4,71.4,30.02,North,359,8.4,19.3,100,0.01,,SKC,0.01,VWS V14.01,2013-04-18 01:35:00,
2013-04-17 21:36:00,71.3,71.3,30.03,South,180,7.0,19.3,100,0.01,,SKC,0.01,VWS V14.01,2013-04-18 01:36:00,
2013-04-17 21:39:00,71.3,71.3,30.03,North,359,1.2,19.3,100,0.01,,SKC,0.01,VWS V14.01,2013-04-18 01:39:00,
2013-04-17 21:40:00,71.4,71.4,30.03,SSW,202,6.8,19.3,100,0.01,,SKC,0.01,VWS V14.01,2013-04-18 01:40:00,
2013-04-17 21:41:00,71.3,71.3,30.02,North,359,0.5,19.3,100,0.01,,SKC,0.01,VWS V14.01,2013-04-18 01:41:00,
2013-04-17 21:44:00,71.3,71.3,30.02,SSW,193,9.6,19.3,100,0.01,,SKC,0.01,VWS V14.01,2013-04-18 01:44:00,
2013-04-17 21:45:00,71.4,71.4,30.02,SSW,198,3.6,19.3,100,0.01,,SKC,0.01,VWS V14.01,2013-04-18 01:45:00,
2013-04-17 21:46:00,71.3,71.3,30.03,SSW,194,6.2,19.3,100,0.01,,SKC,0.01,VWS V14.01,2013-04-18 01:46:00,
2013-04-17 21:49:00,71.3,71.3,30.02,South,177,5.3,19.3,100,0.01,,SKC,0.01,VWS V14.01,2013-04-18 01:49:00,
2013-04-17 21:50:00,71.3,71.3,30.02,SSW,200,3.9,19.3,100,0.01,,SKC,0.01,VWS V14.01,2013-04-18 01:50:00,
2013-04-17 21:51:00,71.4,71.4,30.02,North,359,4.7,19.3,100,0.01,,SKC,0.01,VWS V14.01,2013-04-18 01:51:00,
2013-04-17 21:55:00,71.4,71.4,30.02,North,359,0.0,19.3,100,0.01,,SKC,0.01,VWS V14.01,2013-04-18 01:55:00,
2013-04-17 21:56:00,71.4,71.4,30.02,SSW,193,3.6,19.3,100,0.01,,SKC,0.01,VWS V14.01,2013-04-18 01:56:00,
2013-04-17 22:00:00,71.3,71.3,30.03,SSW,197,2.5,19.3,100,0.01,,SKC,0.01,VWS V14.01,2013-04-18 02:00:00,
2013-04-17 22:01:00,71.4,71.4,30.02,SSW,201,0.0,19.3,100,0.01,,SKC,0.01,VWS V14.01,2013-04-18 02:01:00,
2013-04-17 22:02:00,71.3,71.3,30.02,North,359,2.0,19.3,100,0.01,,SKC,0.01,VWS V14.01,2013-04-18 02:02:00,
2013-04-17 22:05:00,71.4,71.4,30.02,South,188,1.3,19.3,100,0.01,,SKC,0.01,VWS V14.01,2013-04-18 02:05:00,
2013-04-17 22:06:00,71.3,71.3,30.02,SSW,197,6.5,19.3,100,0.01,,SKC,0.01,VWS V14.01,2013-04-18 02:06:00,
2013-04-17 22:07:00,71.4,71.4,30.02,North,359,0.0,19.3,100,0.01,,SKC,0.01,VWS V14.01,2013-04-18 02:07:00,
2013-04-17 22:10:00,71.3,71.3,30.02,North,359,0.0,19.3,100,0.01,,SKC,0.01,VWS V14.01,2013-04-18 02:10:00,
2013-04-17 22:11:00,71.3,71.3,30.02,North,359,0.0,19.3,100,0.01,,SKC,0.01,VWS V14.01,2013-04-18 02:11:00,
2013-04-17 22:12:00,71.3,71.4,30.02,South,181,0.0,19.3,100,0.01,,SKC,0.01,VWS V14.01,2013-04-18 02:12:00,
2013-04-17 22:15:00,71.3,71.3,30.02,North,359,0.0,19.3,100,0.01,,SKC,0.01,VWS V14.01,2013-04-18 02:15:00,
2013-04-17 22:16:00,71.3,71.3,30.02,North,359,0.0,19.3,100,0.01,,SKC,0.01,VWS V14.01,2013-04-18 02:16:00,
2013-04-17 22:17:00,71.3,71.3,30.02,North,359,0.0,19.3,100,0.01,,SKC,0.01,VWS V14.01,2013-04-18 02:17:00,
2013-04-17 22:21:00,71.4,71.4,30.02,North,359,0.0,19.3,100,0.01,,SKC,0.01,VWS V14.01,2013-04-18 02:21:00,
2013-04-17 22:22:00,71.3,71.3,30.02,North,359,0.0,19.3,100,0.01,,SKC,0.01,VWS V14.01,2013-04-18 02:22:00,
2013-04-17 22:26:00,71.4,71.4,30.02,North,359,0.0,19.3,100,0.01,,SKC,0.01,VWS V14.01,2013-04-18 02:26:00,
2013-04-17 22:27:00,71.4,71.4,30.03,North,359,0.0,19.3,100,0.01,,SKC,0.01,VWS V14.01,2013-04-18 02:27:00,
2013-04-17 22:31:00,71.4,71.4,30.03,North,359,0.0,19.3,100,0.01,,SKC,0.01,VWS V14.01,2013-04-18 02:31:00,
2013-04-17 22:32:00,71.4,71.4,30.03,North,359,0.0,19.3,100,0.01,,SKC,0.01,VWS V14.01,2013-04-18 02:32:00,
2013-04-17 22:33:00,71.4,71.4,30.03,North,359,0.0,19.3,100,0.01,,SKC,0.01,VWS V14.01,2013-04-18 02:33:00,
2013-04-17 22:36:00,71.5,71.5,30.03,North,359,0.0,19.3,100,0.01,,SKC,0.01,VWS V14.01,2013-04-18 02:36:00,
2013-04-17 22:38:00,71.5,71.5,30.03,North,359,0.0,19.3,100,0.01,,SKC,0.01,VWS V14.01,2013-04-18 02:38:00,
2013-04-17 22:41:00,71.4,71.4,30.03,North,359,0.0,19.3,100,0.01,,SKC,0.01,VWS V14.01,2013-04-18 02:41:00,
2013-04-17 22:43:00,71.4,71.4,30.03,North,359,0.0,19.3,100,0.01,,SKC,0.01,VWS V14.01,2013-04-18 02:43:00,
2013-04-17 22:44:00,71.4,71.4,30.03,North,359,0.0,19.3,100,0.01,,SKC,0.01,VWS V14.01,2013-04-18 02:44:00,
2013-04-17 22:47:00,71.4,71.4,30.03,North,359,0.0,19.3,100,0.01,,SKC,0.01,VWS V14.01,2013-04-18 02:47:00,
2013-04-17 22:48:00,71.4,71.4,30.03,North,359,0.0,19.3,100,0.01,,SKC,0.01,VWS V14.01,2013-04-18 02:48:00,
2013-04-17 22:49:00,71.5,71.5,30.03,North,359,0.0,19.3,100,0.01,,SKC,0.01,VWS V14.01,2013-04-18 02:49:00,
2013-04-17 22:52:00,71.4,71.4,30.03,SSW,194,2.0,19.3,100,0.01,,SKC,0.01,VWS V14.01,2013-04-18 02:52:00,
2013-04-17 22:53:00,71.5,71.5,30.03,SSW,194,0.0,19.3,100,0.01,,SKC,0.01,VWS V14.01,2013-04-18 02:53:00,
2013-04-17 22:54:00,71.4,71.4,30.03,SSW,194,0.0,19.3,100,0.01,,SKC,0.01,VWS V14.01,2013-04-18 02:54:00,
2013-04-17 22:57:00,71.5,71.5,30.03,SSW,194,0.0,19.3,100,0.01,,SKC,0.01,VWS V14.01,2013-04-18 02:57:00,
2013-04-17 22:58:00,71.5,71.5,30.03,SSW,194,0.0,19.3,100,0.01,,SKC,0.01,VWS V14.01,2013-04-18 02:58:00,
2013-04-17 22:59:00,71.5,71.5,30.04,North,359,0.0,19.3,100,0.01,,SKC,0.01,VWS V14.01,2013-04-18 02:59:00,
2013-04-17 23:02:00,71.4,71.4,30.03,South,187,0.4,19.3,100,0.01,,SKC,0.01,VWS V14.01,2013-04-18 03:02:00,
2013-04-17 23:03:00,71.4,71.4,30.03,North,359,0.8,19.3,100,0.01,,SKC,0.01,VWS V14.01,2013-04-18 03:03:00,
2013-04-17 23:04:00,71.3,71.3,30.03,North,359,0.0,19.3,100,0.01,,SKC,0.01,VWS V14.01,2013-04-18 03:04:00,
2013-04-17 23:05:00,70.9,70.9,30.01,North,359,0.0,19.3,100,0.01,,SKC,0.01,VWS V14.01,2013-04-18 03:05:00,
2013-04-17 23:06:00,70.9,70.9,30.01,North,359,0.0,19.3,100,0.01,,SKC,0.01,VWS V14.01,2013-04-18 03:06:00,
2013-04-17 23:07:00,71.2,71.2,30.03,South,187,7.9,19.3,100,0.01,,SKC,0.01,VWS V14.01,2013-04-18 03:07:00,
2013-04-17 23:08:00,71.2,71.2,30.03,North,359,9.3,19.3,100,0.01,,SKC,0.01,VWS V14.01,2013-04-18 03:08:00,
2013-04-17 23:09:00,71.3,71.3,30.03,SSW,210,6.8,19.3,100,0.01,,SKC,0.01,VWS V14.01,2013-04-18 03:09:00,
2013-04-17 23:12:00,71.3,71.3,30.03,North,359,0.0,19.3,100,0.01,,SKC,0.01,VWS V14.01,2013-04-18 03:12:00,
2013-04-17 23:13:00,71.2,71.2,30.03,North,359,0.0,19.3,100,0.01,,SKC,0.01,VWS V14.01,2013-04-18 03:13:00,
2013-04-17 23:14:00,71.2,71.2,30.03,South,184,9.8,19.3,100,0.01,,SKC,0.01,VWS V14.01,2013-04-18 03:14:00,
2013-04-17 23:17:00,71.2,71.2,30.03,North,359,0.0,19.3,100,0.01,,SKC,0.01,VWS V14.01,2013-04-18 03:17:00,
2013-04-17 23:18:00,71.2,71.2,30.03,North,359,0.0,19.3,100,0.01,,SKC,0.01,VWS V14.01,2013-04-18 03:18:00,
2013-04-17 23:19:00,71.2,71.2,30.03,North,359,0.0,19.3,100,0.01,,SKC,0.01,VWS V14.01,2013-04-18 03:19:00,
2013-04-17 23:20:00,71.1,71.1,30.03,North,359,0.0,19.3,100,0.01,,SKC,0.01,VWS V14.01,2013-04-18 03:20:00,
2013-04-17 23:22:00,71.2,71.2,30.03,North,359,0.0,19.3,100,0.01,,SKC,0.01,VWS V14.01,2013-04-18 03:22:00,
2013-04-17 23:24:00,71.2,71.2,30.03,North,359,0.0,19.3,100,0.01,,SKC,0.01,VWS V14.01,2013-04-18 03:24:00,
2013-04-17 23:25:00,71.2,71.2,30.03,North,359,0.0,19.3,100,0.01,,SKC,0.01,VWS V14.01,2013-04-18 03:25:00,
2013-04-17 23:27:00,71.2,71.2,30.03,North,359,0.0,19.3,100,0.01,,SKC,0.01,VWS V14.01,2013-04-18 03:27:00,
2013-04-17 23:28:00,71.1,71.1,30.03,North,359,0.0,19.3,100,0.01,,SKC,0.01,VWS V14.01,2013-04-18 03:28:00,
2013-04-17 23:29:00,71.1,71.1,30.03,North,359,0.0,19.3,100,0.01,,SKC,0.01,VWS V14.01,2013-04-18 03:29:00,
2013-04-17 23:30:00,71.0,71.0,30.03,North,359,0.0,19.3,100,0.01,,SKC,0.01,VWS V14.01,2013-04-18 03:30:00,
2013-04-17 23:32:00,71.0,71.0,30.03,North,359,0.0,19.3,100,0.01,,SKC,0.01,VWS V14.01,2013-04-18 03:32:00,
2013-04-17 23:33:00,71.0,71.0,30.03,North,359,0.0,19.3,100,0.01,,SKC,0.01,VWS V14.01,2013-04-18 03:33:00,
2013-04-17 23:34:00,71.1,71.1,30.03,North,359,0.0,19.3,100,0.01,,SKC,0.01,VWS V14.01,2013-04-18 03:34:00,
2013-04-17 23:35:00,71.1,71.1,30.03,North,359,0.0,19.3,100,0.01,,SKC,0.01,VWS V14.01,2013-04-18 03:35:00,
2013-04-17 23:38:00,71.1,71.1,30.03,North,359,0.0,19.3,100,0.01,,SKC,0.01,VWS V14.01,2013-04-18 03:38:00,
2013-04-17 23:39:00,71.0,71.0,30.03,North,359,0.0,19.3,100,0.01,,SKC,0.01,VWS V14.01,2013-04-18 03:39:00,
2013-04-17 23:40:00,71.0,71.0,30.02,North,359,0.0,19.3,100,0.01,,SKC,0.01,VWS V14.01,2013-04-18 03:40:00,
2013-04-17 23:43:00,71.1,71.1,30.02,North,359,0.0,19.3,100,0.01,,SKC,0.01,VWS V14.01,2013-04-18 03:43:00,
2013-04-17 23:44:00,71.0,71.0,30.02,South,183,1.6,19.3,100,0.01,,SKC,0.01,VWS V14.01,2013-04-18 03:44:00,
2013-04-17 23:45:00,71.0,71.0,30.02,SSW,198,0.0,19.3,100,0.01,,SKC,0.01,VWS V14.01,2013-04-18 03:45:00,
2013-04-17 23:48:00,71.0,71.0,30.02,SSW,198,0.0,19.3,100,0.01,,SKC,0.01,VWS V14.01,2013-04-18 03:48:00,
2013-04-17 23:49:00,71.0,71.0,30.02,SSW,198,0.0,19.3,100,0.01,,SKC,0.01,VWS V14.01,2013-04-18 03:49:00,
2013-04-17 23:50:00,71.0,71.0,30.02,SSW,198,0.0,19.3,100,0.01,,SKC,0.01,VWS V14.01,2013-04-18 03:50:00,
2013-04-17 23:53:00,70.9,70.9,30.02,SSW,198,0.0,19.3,100,0.01,,SKC,0.01,VWS V14.01,2013-04-18 03:53:00,
2013-04-17 23:54:00,70.9,70.9,30.02,SSW,198,0.0,19.3,100,0.01,,SKC,0.01,VWS V14.01,2013-04-18 03:54:00,
2013-04-17 23:55:00,71.0,70.9,30.02,SSW,198,0.0,19.3,100,0.01,,SKC,0.01,VWS V14.01,2013-04-18 03:55:00,
2013-04-17 23:58:00,70.9,70.9,30.02,SSW,198,0.0,19.3,100,0.01,,SKC,0.01,VWS V14.01,2013-04-18 03:58:00,
2013-04-17 23:59:00,70.9,70.9,30.02,North,359,0.0,19.3,100,0.01,,SKC,0.01,VWS V14.01,2013-04-18 03:59:00,